Observation data for Throckmorton on 07/03/2020      Previous  Date  Next       Current Mesonet Observations  Soil Data  Daily Summary Page  Observations in Plain Language
KTH1 030500Z 18004KT 26/20 A2996 RMK A01 T02590201  RH  070%=      5-min Rain = 0
KTH1 030501Z 18004KT 26/20 A2996 RMK A01 T02590201  RH  070%=      5-min Rain = 0
KTH1 030502Z 17003KT 26/20 A2996 RMK A01 T02590201  RH  070%=      5-min Rain = 0
KTH1 030503Z 16004KT 26/20 A2996 RMK A01 T02580201  RH  071%=      5-min Rain = 0
KTH1 030504Z 16003KT 26/20 A2996 RMK A01 T02580202  RH  071%=      5-min Rain = 0
KTH1 030505Z 16003KT 26/20 A2996 RMK A01 T02580202  RH  071%=      5-min Rain = 0
KTH1 030506Z 16003KT 26/20 A2996 RMK A01 T02570202  RH  071%=      5-min Rain = 0
KTH1 030507Z 17004KT 26/20 A2996 RMK A01 T02560202  RH  072%=      5-min Rain = 0
KTH1 030508Z 18003KT 26/20 A2996 RMK A01 T02560202  RH  072%=      5-min Rain = 0
KTH1 030509Z 19002KT 26/20 A2996 RMK A01 T02550201  RH  072%=      5-min Rain = 0
KTH1 030510Z 20003KT 26/20 A2996 RMK A01 T02550202  RH  072%=      5-min Rain = 0
KTH1 030511Z 20002KT 25/20 A2996 RMK A01 T02540202  RH  073%=      5-min Rain = 0
KTH1 030512Z 22002KT 25/20 A2997 RMK A01 T02540202  RH  073%=      5-min Rain = 0
KTH1 030513Z 21003KT 25/20 A2997 RMK A01 T02540202  RH  073%=      5-min Rain = 0
KTH1 030514Z 21003KT 25/20 A2997 RMK A01 T02540202  RH  073%=      5-min Rain = 0
KTH1 030515Z 22001KT 25/20 A2997 RMK A01 T02540202  RH  073%=      5-min Rain = 0
KTH1 030516Z 20001KT 25/20 A2997 RMK A01 T02540202  RH  073%=      5-min Rain = 0
KTH1 030517Z 19000KT 25/20 A2997 RMK A01 T02540202  RH  073%=      5-min Rain = 0
KTH1 030518Z 17000KT 25/20 A2997 RMK A01 T02540202  RH  073%=      5-min Rain = 0
KTH1 030519Z 13001KT 25/20 A2997 RMK A01 T02540202  RH  073%=      5-min Rain = 0
KTH1 030520Z 13001KT 25/20 A2997 RMK A01 T02540202  RH  073%=      5-min Rain = 0
KTH1 030521Z 12002KT 25/20 A2997 RMK A01 T02540202  RH  073%=      5-min Rain = 0
KTH1 030522Z 12002KT 25/20 A2997 RMK A01 T02540202  RH  073%=      5-min Rain = 0
KTH1 030523Z 11002KT 25/20 A2997 RMK A01 T02530202  RH  073%=      5-min Rain = 0
KTH1 030524Z 12002KT 25/20 A2997 RMK A01 T02530202  RH  074%=      5-min Rain = 0
KTH1 030525Z 13003KT 25/20 A2997 RMK A01 T02520202  RH  074%=      5-min Rain = 0
KTH1 030526Z 13003KT 25/20 A2997 RMK A01 T02520202  RH  074%=      5-min Rain = 0
KTH1 030527Z 15003KT 25/20 A2997 RMK A01 T02510202  RH  074%=      5-min Rain = 0
KTH1 030528Z 15003KT 25/20 A2997 RMK A01 T02510202  RH  074%=      5-min Rain = 0
KTH1 030529Z 15003KT 25/20 A2997 RMK A01 T02500202  RH  075%=      5-min Rain = 0
KTH1 030530Z 16003KT 25/20 A2997 RMK A01 T02500203  RH  075%=      5-min Rain = 0
KTH1 030531Z 16003KT 25/20 A2997 RMK A01 T02490202  RH  075%=      5-min Rain = 0
KTH1 030532Z 17003KT 25/20 A2997 RMK A01 T02490202  RH  075%=      5-min Rain = 0
KTH1 030533Z 18003KT 25/20 A2997 RMK A01 T02480202  RH  075%=      5-min Rain = 0
KTH1 030534Z 18002KT 25/20 A2997 RMK A01 T02480202  RH  076%=      5-min Rain = 0
KTH1 030535Z 18003KT 25/20 A2997 RMK A01 T02480202  RH  076%=      5-min Rain = 0
KTH1 030536Z 18003KT 25/20 A2997 RMK A01 T02480203  RH  076%=      5-min Rain = 0
KTH1 030537Z 18003KT 25/20 A2997 RMK A01 T02480203  RH  076%=      5-min Rain = 0
KTH1 030538Z 19003KT 25/20 A2996 RMK A01 T02480202  RH  076%=      5-min Rain = 0
KTH1 030539Z 18003KT 25/20 A2996 RMK A01 T02480202  RH  076%=      5-min Rain = 0
KTH1 030540Z 19003KT 25/20 A2996 RMK A01 T02480202  RH  076%=      5-min Rain = 0
KTH1 030541Z 19003KT 25/20 A2996 RMK A01 T02470202  RH  076%=      5-min Rain = 0
KTH1 030542Z 18002KT 25/20 A2996 RMK A01 T02470202  RH  076%=      5-min Rain = 0
KTH1 030543Z 18002KT 25/20 A2996 RMK A01 T02480202  RH  076%=      5-min Rain = 0
KTH1 030544Z 17003KT 25/20 A2996 RMK A01 T02480202  RH  076%=      5-min Rain = 0
KTH1 030545Z 17003KT 25/20 A2996 RMK A01 T02480202  RH  076%=      5-min Rain = 0
KTH1 030546Z 17002KT 25/20 A2997 RMK A01 T02480202  RH  076%=      5-min Rain = 0
KTH1 030547Z 16001KT 25/20 A2997 RMK A01 T02480202  RH  076%=      5-min Rain = 0
KTH1 030548Z 17001KT 25/20 A2997 RMK A01 T02480202  RH  076%=      5-min Rain = 0
KTH1 030549Z 16001KT 25/20 A2997 RMK A01 T02480203  RH  076%=      5-min Rain = 0
KTH1 030550Z 16000KT 25/20 A2997 RMK A01 T02480203  RH  076%=      5-min Rain = 0
KTH1 030551Z 00000KT 25/20 A2997 RMK A01 T02470203  RH  076%=      5-min Rain = 0
KTH1 030552Z 00000KT 25/20 A2997 RMK A01 T02470203  RH  076%=      5-min Rain = 0
KTH1 030553Z 00000KT 25/20 A2997 RMK A01 T02470203  RH  076%=      5-min Rain = 0
KTH1 030554Z 03001KT 25/20 A2997 RMK A01 T02470203  RH  076%=      5-min Rain = 0
KTH1 030555Z 04001KT 25/20 A2997 RMK A01 T02470203  RH  076%=      5-min Rain = 0
KTH1 030556Z 04002KT 25/20 A2997 RMK A01 T02470204  RH  077%=      5-min Rain = 0
KTH1 030557Z 04002KT 25/20 A2997 RMK A01 T02460203  RH  077%=      5-min Rain = 0
KTH1 030558Z 05002KT 25/20 A2997 RMK A01 T02460203  RH  077%=      5-min Rain = 0
KTH1 030559Z 06002KT 25/20 A2997 RMK A01 T02450203  RH  077%=      5-min Rain = 0
KTH1 030600Z 06003KT 25/20 A2997 RMK A01 T02450203  RH  077%=      5-min Rain = 0
KTH1 030601Z 05002KT 25/20 A2997 RMK A01 T02450203  RH  078%=      5-min Rain = 0
KTH1 030602Z 05002KT 25/20 A2997 RMK A01 T02450204  RH  078%=      5-min Rain = 0
KTH1 030603Z 04003KT 25/20 A2997 RMK A01 T02450204  RH  078%=      5-min Rain = 0
KTH1 030604Z 04003KT 24/20 A2997 RMK A01 T02440203  RH  078%=      5-min Rain = 0
KTH1 030605Z 04003KT 24/20 A2997 RMK A01 T02440204  RH  078%=      5-min Rain = 0
KTH1 030606Z 05004KT 24/20 A2997 RMK A01 T02440203  RH  078%=      5-min Rain = 0
KTH1 030607Z 05004KT 24/20 A2997 RMK A01 T02440204  RH  078%=      5-min Rain = 0
KTH1 030608Z 06004KT 24/20 A2997 RMK A01 T02440203  RH  078%=      5-min Rain = 0
KTH1 030609Z 06004KT 24/20 A2997 RMK A01 T02440204  RH  078%=      5-min Rain = 0
KTH1 030610Z 06004KT 24/20 A2997 RMK A01 T02440204  RH  079%=      5-min Rain = 0
KTH1 030611Z 06004KT 24/20 A2997 RMK A01 T02430204  RH  079%=      5-min Rain = 0
KTH1 030612Z 06004KT 24/20 A2997 RMK A01 T02430204  RH  079%=      5-min Rain = 0
KTH1 030613Z 06004KT 24/20 A2997 RMK A01 T02440204  RH  079%=      5-min Rain = 0
KTH1 030614Z 06004KT 24/20 A2997 RMK A01 T02440204  RH  078%=      5-min Rain = 0
KTH1 030615Z 06004KT 24/20 A2997 RMK A01 T02440204  RH  078%=      5-min Rain = 0
KTH1 030616Z 07003KT 24/20 A2997 RMK A01 T02440204  RH  078%=      5-min Rain = 0
KTH1 030617Z 07003KT 24/20 A2997 RMK A01 T02440204  RH  079%=      5-min Rain = 0
KTH1 030618Z 07004KT 24/20 A2997 RMK A01 T02430204  RH  079%=      5-min Rain = 0
KTH1 030619Z 08004KT 24/20 A2997 RMK A01 T02430204  RH  079%=      5-min Rain = 0
KTH1 030620Z 08003KT 24/20 A2997 RMK A01 T02420204  RH  079%=      5-min Rain = 0
KTH1 030621Z 08003KT 24/20 A2997 RMK A01 T02410204  RH  080%=      5-min Rain = 0
KTH1 030622Z 07003KT 24/20 A2997 RMK A01 T02400204  RH  080%=      5-min Rain = 0
KTH1 030623Z 08004KT 24/20 A2997 RMK A01 T02390204  RH  081%=      5-min Rain = 0
KTH1 030624Z 07004KT 24/20 A2997 RMK A01 T02380203  RH  081%=      5-min Rain = 0
KTH1 030625Z 07003KT 24/20 A2997 RMK A01 T02380203  RH  081%=      5-min Rain = 0
KTH1 030626Z 07003KT 24/20 A2997 RMK A01 T02370203  RH  081%=      5-min Rain = 0
KTH1 030627Z 07003KT 24/20 A2997 RMK A01 T02360203  RH  082%=      5-min Rain = 0
KTH1 030628Z 07003KT 24/20 A2997 RMK A01 T02360203  RH  082%=      5-min Rain = 0
KTH1 030629Z 07003KT 24/20 A2997 RMK A01 T02350203  RH  082%=      5-min Rain = 0
KTH1 030630Z 06002KT 24/20 A2997 RMK A01 T02350203  RH  082%=      5-min Rain = 0
KTH1 030631Z 06003KT 24/20 A2997 RMK A01 T02350203  RH  082%=      5-min Rain = 0
KTH1 030632Z 06003KT 23/20 A2997 RMK A01 T02340203  RH  082%=      5-min Rain = 0
KTH1 030633Z 06003KT 23/20 A2997 RMK A01 T02340202  RH  082%=      5-min Rain = 0
KTH1 030634Z 06003KT 23/20 A2997 RMK A01 T02340203  RH  083%=      5-min Rain = 0
KTH1 030635Z 06003KT 23/20 A2997 RMK A01 T02340203  RH  083%=      5-min Rain = 0
KTH1 030636Z 06003KT 23/20 A2997 RMK A01 T02340204  RH  083%=      5-min Rain = 0
KTH1 030637Z 07003KT 23/20 A2997 RMK A01 T02340203  RH  083%=      5-min Rain = 0
KTH1 030638Z 06003KT 23/20 A2997 RMK A01 T02340203  RH  083%=      5-min Rain = 0
KTH1 030639Z 06003KT 23/20 A2997 RMK A01 T02340203  RH  083%=      5-min Rain = 0
KTH1 030640Z 07003KT 23/20 A2997 RMK A01 T02340203  RH  083%=      5-min Rain = 0
KTH1 030641Z 07003KT 23/20 A2997 RMK A01 T02340203  RH  083%=      5-min Rain = 0
KTH1 030642Z 07002KT 23/20 A2997 RMK A01 T02340203  RH  083%=      5-min Rain = 0
KTH1 030643Z 08002KT 23/20 A2997 RMK A01 T02340203  RH  083%=      5-min Rain = 0
KTH1 030644Z 08002KT 23/20 A2997 RMK A01 T02330203  RH  083%=      5-min Rain = 0
KTH1 030645Z 07002KT 23/20 A2997 RMK A01 T02340203  RH  083%=      5-min Rain = 0
KTH1 030646Z 09002KT 23/20 A2997 RMK A01 T02330203  RH  083%=      5-min Rain = 0
KTH1 030647Z 08002KT 23/20 A2997 RMK A01 T02330204  RH  084%=      5-min Rain = 0
KTH1 030648Z 08002KT 23/20 A2997 RMK A01 T02330204  RH  084%=      5-min Rain = 0
KTH1 030649Z 07002KT 23/20 A2997 RMK A01 T02320203  RH  084%=      5-min Rain = 0
KTH1 030650Z 08002KT 23/20 A2997 RMK A01 T02320204  RH  084%=      5-min Rain = 0
KTH1 030651Z 09001KT 23/20 A2997 RMK A01 T02310204  RH  084%=      5-min Rain = 0
KTH1 030652Z 10001KT 23/20 A2997 RMK A01 T02310204  RH  085%=      5-min Rain = 0
KTH1 030653Z 09001KT 23/20 A2997 RMK A01 T02300204  RH  085%=      5-min Rain = 0
KTH1 030654Z 09001KT 23/20 A2997 RMK A01 T02300204  RH  085%=      5-min Rain = 0
KTH1 030655Z 09000KT 23/20 A2997 RMK A01 T02300204  RH  085%=      5-min Rain = 0
KTH1 030656Z 09000KT 23/20 A2997 RMK A01 T02300203  RH  085%=      5-min Rain = 0
KTH1 030657Z 06001KT 23/20 A2997 RMK A01 T02290203  RH  085%=      5-min Rain = 0
KTH1 030658Z 08001KT 23/20 A2997 RMK A01 T02290203  RH  085%=      5-min Rain = 0
KTH1 030659Z 08002KT 23/20 A2997 RMK A01 T02290203  RH  085%=      5-min Rain = 0
KTH1 030700Z 07002KT 23/20 A2997 RMK A01 T02290204  RH  086%=      5-min Rain = 0
KTH1 030701Z 07002KT 23/20 A2997 RMK A01 T02280204  RH  086%=      5-min Rain = 0
KTH1 030702Z 07002KT 23/20 A2997 RMK A01 T02280204  RH  086%=      5-min Rain = 0
KTH1 030703Z 08001KT 23/20 A2997 RMK A01 T02290204  RH  086%=      5-min Rain = 0
KTH1 030704Z 07002KT 23/20 A2997 RMK A01 T02290203  RH  086%=      5-min Rain = 0
KTH1 030705Z 07002KT 23/20 A2997 RMK A01 T02280203  RH  086%=      5-min Rain = 0
KTH1 030706Z 07002KT 23/20 A2997 RMK A01 T02280204  RH  086%=      5-min Rain = 0
KTH1 030707Z 07001KT 23/20 A2997 RMK A01 T02280203  RH  086%=      5-min Rain = 0
KTH1 030708Z 07002KT 23/20 A2997 RMK A01 T02280203  RH  086%=      5-min Rain = 0
KTH1 030709Z 07002KT 23/20 A2997 RMK A01 T02270203  RH  086%=      5-min Rain = 0
KTH1 030710Z 06002KT 23/20 A2997 RMK A01 T02270203  RH  086%=      5-min Rain = 0
KTH1 030711Z 06001KT 23/20 A2997 RMK A01 T02270203  RH  087%=      5-min Rain = 0
KTH1 030712Z 05001KT 23/20 A2997 RMK A01 T02270204  RH  087%=      5-min Rain = 0
KTH1 030713Z 06001KT 23/20 A2997 RMK A01 T02260203  RH  087%=      5-min Rain = 0
KTH1 030714Z 06001KT 23/20 A2997 RMK A01 T02270203  RH  087%=      5-min Rain = 0
KTH1 030715Z 06001KT 23/20 A2997 RMK A01 T02270203  RH  087%=      5-min Rain = 0
KTH1 030716Z 06001KT 23/20 A2997 RMK A01 T02270203  RH  087%=      5-min Rain = 0
KTH1 030717Z 07001KT 23/20 A2997 RMK A01 T02270204  RH  087%=      5-min Rain = 0
KTH1 030718Z 10001KT 23/20 A2997 RMK A01 T02270203  RH  087%=      5-min Rain = 0
KTH1 030719Z 11001KT 23/20 A2997 RMK A01 T02270204  RH  086%=      5-min Rain = 0
KTH1 030720Z 11002KT 23/20 A2997 RMK A01 T02280203  RH  086%=      5-min Rain = 0
KTH1 030721Z 10002KT 23/20 A2997 RMK A01 T02280203  RH  086%=      5-min Rain = 0
KTH1 030722Z 11003KT 23/20 A2996 RMK A01 T02280203  RH  086%=      5-min Rain = 0
KTH1 030723Z 10003KT 23/20 A2996 RMK A01 T02280204  RH  086%=      5-min Rain = 0
KTH1 030724Z 10002KT 23/20 A2996 RMK A01 T02280204  RH  086%=      5-min Rain = 0
KTH1 030725Z 10003KT 23/20 A2996 RMK A01 T02290204  RH  086%=      5-min Rain = 0
KTH1 030726Z 12002KT 23/20 A2996 RMK A01 T02290204  RH  086%=      5-min Rain = 0
KTH1 030727Z 12003KT 23/21 A2996 RMK A01 T02300205  RH  086%=      5-min Rain = 0
KTH1 030728Z 13003KT 23/20 A2996 RMK A01 T02290204  RH  086%=      5-min Rain = 0
KTH1 030729Z 12003KT 23/20 A2996 RMK A01 T02290204  RH  086%=      5-min Rain = 0
KTH1 030730Z 12002KT 23/21 A2996 RMK A01 T02300205  RH  086%=      5-min Rain = 0
KTH1 030731Z 12003KT 23/20 A2996 RMK A01 T02290204  RH  086%=      5-min Rain = 0
KTH1 030732Z 12003KT 23/20 A2996 RMK A01 T02290204  RH  086%=      5-min Rain = 0
KTH1 030733Z 11003KT 23/21 A2996 RMK A01 T02290205  RH  086%=      5-min Rain = 0
KTH1 030734Z 11003KT 23/21 A2996 RMK A01 T02280205  RH  086%=      5-min Rain = 0
KTH1 030735Z 11003KT 23/20 A2996 RMK A01 T02280204  RH  087%=      5-min Rain = 0
KTH1 030736Z 11003KT 23/20 A2996 RMK A01 T02270204  RH  087%=      5-min Rain = 0
KTH1 030737Z 11003KT 23/20 A2996 RMK A01 T02270204  RH  087%=      5-min Rain = 0
KTH1 030738Z 12003KT 23/20 A2996 RMK A01 T02270204  RH  087%=      5-min Rain = 0
KTH1 030739Z 13003KT 23/20 A2996 RMK A01 T02260204  RH  087%=      5-min Rain = 0
KTH1 030740Z 14003KT 23/20 A2996 RMK A01 T02260204  RH  087%=      5-min Rain = 0
KTH1 030741Z 14002KT 23/20 A2996 RMK A01 T02260204  RH  088%=      5-min Rain = 0
KTH1 030742Z 14002KT 23/20 A2996 RMK A01 T02250204  RH  088%=      5-min Rain = 0
KTH1 030743Z 14003KT 22/20 A2996 RMK A01 T02240204  RH  088%=      5-min Rain = 0
KTH1 030744Z 14003KT 22/20 A2996 RMK A01 T02240204  RH  088%=      5-min Rain = 0
KTH1 030745Z 14003KT 22/20 A2996 RMK A01 T02240204  RH  088%=      5-min Rain = 0
KTH1 030746Z 13003KT 22/20 A2996 RMK A01 T02240204  RH  088%=      5-min Rain = 0
KTH1 030747Z 15003KT 22/20 A2996 RMK A01 T02230204  RH  089%=      5-min Rain = 0
KTH1 030748Z 15003KT 22/20 A2996 RMK A01 T02230204  RH  089%=      5-min Rain = 0
KTH1 030749Z 15003KT 22/21 A2996 RMK A01 T02230205  RH  089%=      5-min Rain = 0
KTH1 030750Z 15003KT 22/20 A2996 RMK A01 T02230204  RH  089%=      5-min Rain = 0
KTH1 030751Z 15003KT 22/21 A2996 RMK A01 T02230205  RH  089%=      5-min Rain = 0
KTH1 030752Z 14003KT 22/21 A2996 RMK A01 T02220205  RH  090%=      5-min Rain = 0
KTH1 030753Z 15003KT 22/21 A2996 RMK A01 T02230205  RH  090%=      5-min Rain = 0
KTH1 030754Z 15003KT 22/21 A2996 RMK A01 T02230205  RH  089%=      5-min Rain = 0
KTH1 030755Z 15003KT 22/21 A2996 RMK A01 T02230205  RH  090%=      5-min Rain = 0
KTH1 030756Z 15003KT 22/21 A2996 RMK A01 T02230205  RH  090%=      5-min Rain = 0
KTH1 030757Z 14004KT 22/21 A2996 RMK A01 T02230206  RH  090%=      5-min Rain = 0
KTH1 030758Z 14003KT 22/21 A2996 RMK A01 T02230206  RH  090%=      5-min Rain = 0
KTH1 030759Z 13003KT 22/21 A2996 RMK A01 T02230206  RH  090%=      5-min Rain = 0
KTH1 030800Z 14004KT 22/21 A2996 RMK A01 T02240206  RH  090%=      5-min Rain = 0
KTH1 030801Z 14004KT 22/21 A2996 RMK A01 T02240206  RH  090%=      5-min Rain = 0
KTH1 030802Z 14004KT 22/21 A2996 RMK A01 T02240206  RH  090%=      5-min Rain = 0
KTH1 030803Z 14004KT 22/21 A2996 RMK A01 T02240206  RH  089%=      5-min Rain = 0
KTH1 030804Z 14003KT 23/21 A2996 RMK A01 T02250206  RH  089%=      5-min Rain = 0
KTH1 030805Z 14003KT 23/21 A2996 RMK A01 T02250206  RH  089%=      5-min Rain = 0
KTH1 030806Z 14003KT 23/21 A2996 RMK A01 T02250206  RH  089%=      5-min Rain = 0
KTH1 030807Z 14004KT 23/21 A2996 RMK A01 T02250206  RH  089%=      5-min Rain = 0
KTH1 030808Z 14003KT 23/21 A2996 RMK A01 T02250206  RH  089%=      5-min Rain = 0
KTH1 030809Z 14003KT 23/21 A2996 RMK A01 T02250206  RH  089%=      5-min Rain = 0
KTH1 030810Z 14004KT 23/21 A2996 RMK A01 T02250206  RH  089%=      5-min Rain = 0
KTH1 030811Z 14003KT 23/21 A2996 RMK A01 T02260207  RH  089%=      5-min Rain = 0
KTH1 030812Z 13003KT 23/21 A2996 RMK A01 T02260206  RH  089%=      5-min Rain = 0
KTH1 030813Z 13003KT 23/21 A2996 RMK A01 T02270207  RH  089%=      5-min Rain = 0
KTH1 030814Z 13004KT 23/21 A2996 RMK A01 T02280207  RH  088%=      5-min Rain = 0
KTH1 030815Z 12003KT 23/21 A2996 RMK A01 T02290207  RH  088%=      5-min Rain = 0
KTH1 030816Z 13004KT 23/21 A2996 RMK A01 T02290207  RH  087%=      5-min Rain = 0
KTH1 030817Z 12004KT 23/21 A2996 RMK A01 T02300207  RH  087%=      5-min Rain = 0
KTH1 030818Z 12004KT 23/21 A2996 RMK A01 T02300207  RH  087%=      5-min Rain = 0
KTH1 030819Z 12004KT 23/21 A2996 RMK A01 T02300207  RH  087%=      5-min Rain = 0
KTH1 030820Z 11004KT 23/21 A2996 RMK A01 T02300207  RH  087%=      5-min Rain = 0
KTH1 030821Z 12005KT 23/21 A2996 RMK A01 T02310207  RH  087%=      5-min Rain = 0
KTH1 030822Z 12005KT 23/21 A2996 RMK A01 T02310207  RH  086%=      5-min Rain = 0
KTH1 030823Z 12004KT 23/21 A2996 RMK A01 T02310208  RH  086%=      5-min Rain = 0
KTH1 030824Z 13004KT 23/21 A2996 RMK A01 T02310207  RH  086%=      5-min Rain = 0
KTH1 030825Z 13004KT 23/21 A2996 RMK A01 T02310207  RH  086%=      5-min Rain = 0
KTH1 030826Z 13004KT 23/21 A2996 RMK A01 T02310208  RH  087%=      5-min Rain = 0
KTH1 030827Z 13004KT 23/21 A2996 RMK A01 T02300208  RH  087%=      5-min Rain = 0
KTH1 030828Z 14004KT 23/21 A2996 RMK A01 T02300207  RH  087%=      5-min Rain = 0
KTH1 030829Z 13004KT 23/21 A2996 RMK A01 T02300207  RH  087%=      5-min Rain = 0
KTH1 030830Z 14004KT 23/21 A2996 RMK A01 T02300208  RH  087%=      5-min Rain = 0
KTH1 030831Z 14004KT 23/21 A2996 RMK A01 T02300207  RH  087%=      5-min Rain = 0
KTH1 030832Z 14004KT 23/21 A2996 RMK A01 T02300207  RH  087%=      5-min Rain = 0
KTH1 030833Z 14004KT 23/21 A2996 RMK A01 T02300207  RH  087%=      5-min Rain = 0
KTH1 030834Z 14003KT 23/21 A2996 RMK A01 T02300207  RH  087%=      5-min Rain = 0
KTH1 030835Z 13003KT 23/21 A2996 RMK A01 T02300207  RH  087%=      5-min Rain = 0
KTH1 030836Z 13003KT 23/21 A2996 RMK A01 T02300206  RH  087%=      5-min Rain = 0
KTH1 030837Z 13003KT 23/21 A2996 RMK A01 T02300206  RH  087%=      5-min Rain = 0
KTH1 030838Z 13003KT 23/21 A2996 RMK A01 T02290206  RH  087%=      5-min Rain = 0
KTH1 030839Z 13003KT 23/21 A2996 RMK A01 T02290206  RH  087%=      5-min Rain = 0
KTH1 030840Z 13004KT 23/21 A2996 RMK A01 T02290206  RH  087%=      5-min Rain = 0
KTH1 030841Z 13004KT 23/21 A2996 RMK A01 T02290206  RH  087%=      5-min Rain = 0
KTH1 030842Z 12004KT 23/21 A2996 RMK A01 T02290206  RH  086%=      5-min Rain = 0
KTH1 030843Z 12004KT 23/21 A2996 RMK A01 T02290205  RH  086%=      5-min Rain = 0
KTH1 030844Z 13004KT 23/21 A2996 RMK A01 T02300205  RH  086%=      5-min Rain = 0
KTH1 030845Z 13005KT 23/21 A2996 RMK A01 T02300205  RH  086%=      5-min Rain = 0
KTH1 030846Z 13004KT 23/21 A2996 RMK A01 T02300205  RH  086%=      5-min Rain = 0
KTH1 030847Z 13003KT 23/21 A2996 RMK A01 T02300205  RH  086%=      5-min Rain = 0
KTH1 030848Z 14003KT 23/21 A2996 RMK A01 T02300205  RH  086%=      5-min Rain = 0
KTH1 030849Z 13004KT 23/21 A2996 RMK A01 T02300205  RH  086%=      5-min Rain = 0
KTH1 030850Z 14003KT 23/21 A2996 RMK A01 T02290205  RH  086%=      5-min Rain = 0
KTH1 030851Z 14003KT 23/21 A2996 RMK A01 T02290205  RH  086%=      5-min Rain = 0
KTH1 030852Z 15004KT 23/21 A2996 RMK A01 T02290205  RH  086%=      5-min Rain = 0
KTH1 030853Z 14004KT 23/21 A2996 RMK A01 T02290205  RH  086%=      5-min Rain = 0
KTH1 030854Z 14003KT 23/21 A2996 RMK A01 T02290205  RH  086%=      5-min Rain = 0
KTH1 030855Z 15003KT 23/20 A2996 RMK A01 T02290204  RH  086%=      5-min Rain = 0
KTH1 030856Z 15004KT 23/20 A2996 RMK A01 T02290204  RH  086%=      5-min Rain = 0
KTH1 030857Z 15003KT 23/20 A2996 RMK A01 T02290204  RH  086%=      5-min Rain = 0
KTH1 030858Z 15004KT 23/20 A2996 RMK A01 T02280204  RH  086%=      5-min Rain = 0
KTH1 030859Z 15004KT 23/20 A2996 RMK A01 T02280204  RH  086%=      5-min Rain = 0
KTH1 030900Z 14004KT 23/20 A2996 RMK A01 T02280204  RH  086%=      5-min Rain = 0
KTH1 030901Z 15003KT 23/20 A2996 RMK A01 T02280204  RH  086%=      5-min Rain = 0
KTH1 030902Z 14003KT 23/20 A2996 RMK A01 T02280204  RH  087%=      5-min Rain = 0
KTH1 030903Z 14003KT 23/20 A2997 RMK A01 T02270204  RH  087%=      5-min Rain = 0
KTH1 030904Z 14003KT 23/20 A2997 RMK A01 T02270204  RH  087%=      5-min Rain = 0
KTH1 030905Z 14003KT 23/20 A2997 RMK A01 T02270204  RH  087%=      5-min Rain = 0
KTH1 030906Z 14003KT 23/20 A2997 RMK A01 T02260204  RH  087%=      5-min Rain = 0
KTH1 030907Z 15004KT 23/20 A2997 RMK A01 T02260204  RH  087%=      5-min Rain = 0
KTH1 030908Z 14004KT 23/20 A2997 RMK A01 T02260204  RH  087%=      5-min Rain = 0
KTH1 030909Z 14004KT 23/20 A2997 RMK A01 T02260204  RH  087%=      5-min Rain = 0
KTH1 030910Z 15004KT 23/20 A2997 RMK A01 T02260204  RH  087%=      5-min Rain = 0
KTH1 030911Z 14004KT 23/20 A2997 RMK A01 T02250203  RH  087%=      5-min Rain = 0
KTH1 030912Z 15004KT 23/20 A2997 RMK A01 T02250204  RH  088%=      5-min Rain = 0
KTH1 030913Z 15004KT 23/20 A2997 RMK A01 T02250203  RH  087%=      5-min Rain = 0
KTH1 030914Z 15005KT 23/20 A2997 RMK A01 T02250203  RH  087%=      5-min Rain = 0
KTH1 030915Z 15004KT 23/20 A2997 RMK A01 T02250203  RH  087%=      5-min Rain = 0
KTH1 030916Z 14005KT 23/20 A2997 RMK A01 T02250203  RH  087%=      5-min Rain = 0
KTH1 030917Z 15005KT 23/20 A2997 RMK A01 T02260203  RH  087%=      5-min Rain = 0
KTH1 030918Z 15005KT 23/20 A2997 RMK A01 T02260203  RH  087%=      5-min Rain = 0
KTH1 030919Z 15005KT 23/20 A2997 RMK A01 T02260203  RH  087%=      5-min Rain = 0
KTH1 030920Z 15005KT 23/20 A2997 RMK A01 T02270203  RH  086%=      5-min Rain = 0
KTH1 030921Z 15005KT 23/20 A2997 RMK A01 T02270203  RH  086%=      5-min Rain = 0
KTH1 030922Z 15005KT 23/20 A2997 RMK A01 T02270203  RH  086%=      5-min Rain = 0
KTH1 030923Z 15005KT 23/20 A2997 RMK A01 T02270203  RH  086%=      5-min Rain = 0
KTH1 030924Z 15005KT 23/20 A2997 RMK A01 T02270203  RH  086%=      5-min Rain = 0
KTH1 030925Z 15005KT 23/20 A2997 RMK A01 T02270203  RH  086%=      5-min Rain = 0
KTH1 030926Z 15006KT 23/20 A2997 RMK A01 T02270203  RH  086%=      5-min Rain = 0
KTH1 030927Z 15006KT 23/20 A2997 RMK A01 T02270203  RH  086%=      5-min Rain = 0
KTH1 030928Z 15006KT 23/20 A2997 RMK A01 T02270203  RH  086%=      5-min Rain = 0
KTH1 030929Z 15005KT 23/20 A2997 RMK A01 T02270203  RH  086%=      5-min Rain = 0
KTH1 030930Z 15005KT 23/20 A2997 RMK A01 T02270203  RH  086%=      5-min Rain = 0
KTH1 030931Z 15005KT 23/20 A2997 RMK A01 T02270203  RH  086%=      5-min Rain = 0
KTH1 030932Z 15005KT 23/20 A2997 RMK A01 T02270203  RH  086%=      5-min Rain = 0
KTH1 030933Z 15005KT 23/20 A2997 RMK A01 T02270203  RH  087%=      5-min Rain = 0
KTH1 030934Z 15005KT 23/20 A2997 RMK A01 T02260203  RH  087%=      5-min Rain = 0
KTH1 030935Z 15005KT 23/20 A2997 RMK A01 T02260203  RH  087%=      5-min Rain = 0
KTH1 030936Z 15004KT 23/20 A2997 RMK A01 T02260203  RH  087%=      5-min Rain = 0
KTH1 030937Z 15005KT 23/20 A2997 RMK A01 T02260203  RH  087%=      5-min Rain = 0
KTH1 030938Z 15005KT 23/20 A2997 RMK A01 T02250203  RH  087%=      5-min Rain = 0
KTH1 030939Z 15004KT 23/20 A2997 RMK A01 T02260203  RH  087%=      5-min Rain = 0
KTH1 030940Z 15004KT 23/20 A2997 RMK A01 T02260203  RH  087%=      5-min Rain = 0
KTH1 030941Z 15004KT 23/20 A2997 RMK A01 T02260203  RH  087%=      5-min Rain = 0
KTH1 030942Z 15004KT 23/20 A2997 RMK A01 T02250203  RH  087%=      5-min Rain = 0
KTH1 030943Z 15004KT 23/20 A2997 RMK A01 T02250203  RH  087%=      5-min Rain = 0
KTH1 030944Z 14004KT 23/20 A2997 RMK A01 T02250204  RH  087%=      5-min Rain = 0
KTH1 030945Z 14004KT 23/20 A2997 RMK A01 T02250203  RH  088%=      5-min Rain = 0
KTH1 030946Z 15004KT 23/20 A2998 RMK A01 T02250203  RH  088%=      5-min Rain = 0
KTH1 030947Z 14004KT 23/20 A2998 RMK A01 T02250203  RH  088%=      5-min Rain = 0
KTH1 030948Z 14003KT 23/20 A2998 RMK A01 T02250203  RH  088%=      5-min Rain = 0
KTH1 030949Z 14002KT 23/20 A2998 RMK A01 T02250204  RH  088%=      5-min Rain = 0
KTH1 030950Z 13003KT 23/20 A2998 RMK A01 T02250203  RH  088%=      5-min Rain = 0
KTH1 030951Z 12003KT 23/20 A2998 RMK A01 T02250204  RH  088%=      5-min Rain = 0
KTH1 030952Z 12003KT 23/20 A2998 RMK A01 T02250203  RH  088%=      5-min Rain = 0
KTH1 030953Z 11003KT 23/20 A2998 RMK A01 T02250203  RH  087%=      5-min Rain = 0
KTH1 030954Z 12002KT 23/20 A2998 RMK A01 T02250203  RH  087%=      5-min Rain = 0
KTH1 030955Z 12002KT 23/20 A2998 RMK A01 T02250203  RH  087%=      5-min Rain = 0
KTH1 030956Z 12003KT 23/20 A2998 RMK A01 T02250203  RH  087%=      5-min Rain = 0
KTH1 030957Z 12003KT 23/20 A2998 RMK A01 T02250203  RH  087%=      5-min Rain = 0
KTH1 030958Z 12002KT 23/20 A2998 RMK A01 T02250203  RH  087%=      5-min Rain = 0
KTH1 030959Z 13003KT 23/20 A2998 RMK A01 T02250204  RH  087%=      5-min Rain = 0
KTH1 031000Z 13003KT 23/20 A2998 RMK A01 T02250203  RH  088%=      5-min Rain = 0
KTH1 031001Z 13002KT 23/20 A2998 RMK A01 T02250204  RH  088%=      5-min Rain = 0
KTH1 031002Z 14003KT 23/20 A2998 RMK A01 T02250203  RH  088%=      5-min Rain = 0
KTH1 031003Z 14003KT 22/20 A2998 RMK A01 T02240203  RH  088%=      5-min Rain = 0
KTH1 031004Z 14003KT 22/20 A2998 RMK A01 T02240203  RH  088%=      5-min Rain = 0
KTH1 031005Z 15003KT 22/20 A2998 RMK A01 T02240203  RH  088%=      5-min Rain = 0
KTH1 031006Z 15004KT 22/20 A2998 RMK A01 T02240203  RH  088%=      5-min Rain = 0
KTH1 031007Z 15004KT 22/20 A2998 RMK A01 T02230203  RH  088%=      5-min Rain = 0
KTH1 031008Z 15004KT 22/20 A2998 RMK A01 T02230203  RH  088%=      5-min Rain = 0
KTH1 031009Z 15004KT 22/20 A2997 RMK A01 T02230203  RH  088%=      5-min Rain = 0
KTH1 031010Z 15004KT 22/20 A2997 RMK A01 T02220202  RH  088%=      5-min Rain = 0
KTH1 031011Z 15004KT 22/20 A2997 RMK A01 T02220202  RH  088%=      5-min Rain = 0
KTH1 031012Z 16005KT 22/20 A2998 RMK A01 T02220202  RH  089%=      5-min Rain = 0
KTH1 031013Z 15005KT 22/20 A2998 RMK A01 T02220203  RH  089%=      5-min Rain = 0
KTH1 031014Z 16005KT 22/20 A2998 RMK A01 T02220203  RH  089%=      5-min Rain = 0
KTH1 031015Z 15005KT 22/20 A2998 RMK A01 T02220203  RH  089%=      5-min Rain = 0
KTH1 031016Z 15004KT 22/20 A2998 RMK A01 T02210202  RH  089%=      5-min Rain = 0
KTH1 031017Z 16005KT 22/20 A2998 RMK A01 T02210202  RH  089%=      5-min Rain = 0
KTH1 031018Z 16005KT 22/20 A2998 RMK A01 T02210203  RH  089%=      5-min Rain = 0
KTH1 031019Z 16005KT 22/20 A2998 RMK A01 T02210203  RH  089%=      5-min Rain = 0
KTH1 031020Z 16004KT 22/20 A2998 RMK A01 T02210203  RH  089%=      5-min Rain = 0
KTH1 031021Z 16004KT 22/20 A2998 RMK A01 T02210203  RH  090%=      5-min Rain = 0
KTH1 031022Z 16004KT 22/20 A2998 RMK A01 T02210203  RH  090%=      5-min Rain = 0
KTH1 031023Z 16005KT 22/20 A2998 RMK A01 T02210203  RH  090%=      5-min Rain = 0
KTH1 031024Z 16005KT 22/20 A2998 RMK A01 T02210203  RH  090%=      5-min Rain = 0
KTH1 031025Z 16005KT 22/20 A2998 RMK A01 T02210203  RH  090%=      5-min Rain = 0
KTH1 031026Z 16004KT 22/20 A2998 RMK A01 T02210203  RH  090%=      5-min Rain = 0
KTH1 031027Z 15005KT 22/20 A2998 RMK A01 T02210203  RH  090%=      5-min Rain = 0
KTH1 031028Z 15005KT 22/20 A2998 RMK A01 T02210203  RH  089%=      5-min Rain = 0
KTH1 031029Z 16004KT 22/20 A2998 RMK A01 T02210203  RH  089%=      5-min Rain = 0
KTH1 031030Z 16004KT 22/20 A2998 RMK A01 T02210203  RH  090%=      5-min Rain = 0
KTH1 031031Z 16004KT 22/20 A2998 RMK A01 T02210203  RH  090%=      5-min Rain = 0
KTH1 031032Z 16004KT 22/20 A2998 RMK A01 T02210203  RH  090%=      5-min Rain = 0
KTH1 031033Z 16004KT 22/20 A2998 RMK A01 T02210203  RH  090%=      5-min Rain = 0
KTH1 031034Z 17004KT 22/20 A2998 RMK A01 T02210203  RH  090%=      5-min Rain = 0
KTH1 031035Z 17004KT 22/20 A2998 RMK A01 T02210203  RH  089%=      5-min Rain = 0
KTH1 031036Z 17004KT 22/20 A2998 RMK A01 T02210203  RH  089%=      5-min Rain = 0
KTH1 031037Z 18005KT 22/20 A2998 RMK A01 T02210203  RH  089%=      5-min Rain = 0
KTH1 031038Z 17004KT 22/20 A2998 RMK A01 T02210203  RH  089%=      5-min Rain = 0
KTH1 031039Z 18004KT 22/20 A2998 RMK A01 T02220203  RH  089%=      5-min Rain = 0
KTH1 031040Z 18004KT 22/20 A2998 RMK A01 T02220203  RH  089%=      5-min Rain = 0
KTH1 031041Z 18005KT 22/20 A2998 RMK A01 T02230203  RH  089%=      5-min Rain = 0
KTH1 031042Z 17004KT 22/20 A2998 RMK A01 T02230203  RH  088%=      5-min Rain = 0
KTH1 031043Z 17003KT 22/20 A2998 RMK A01 T02240203  RH  088%=      5-min Rain = 0
KTH1 031044Z 18004KT 22/20 A2998 RMK A01 T02240203  RH  088%=      5-min Rain = 0
KTH1 031045Z 18004KT 22/20 A2998 RMK A01 T02240203  RH  088%=      5-min Rain = 0
KTH1 031046Z 18003KT 22/20 A2998 RMK A01 T02240203  RH  088%=      5-min Rain = 0
KTH1 031047Z 18004KT 23/20 A2998 RMK A01 T02250204  RH  088%=      5-min Rain = 0
KTH1 031048Z 18004KT 22/20 A2998 RMK A01 T02240203  RH  088%=      5-min Rain = 0
KTH1 031049Z 18004KT 22/20 A2998 RMK A01 T02240203  RH  088%=      5-min Rain = 0
KTH1 031050Z 18004KT 22/20 A2998 RMK A01 T02240203  RH  088%=      5-min Rain = 0
KTH1 031051Z 19003KT 22/20 A2998 RMK A01 T02240203  RH  088%=      5-min Rain = 0
KTH1 031052Z 19003KT 22/20 A2998 RMK A01 T02240203  RH  088%=      5-min Rain = 0
KTH1 031053Z 19003KT 22/20 A2998 RMK A01 T02240203  RH  088%=      5-min Rain = 0
KTH1 031054Z 19003KT 22/20 A2998 RMK A01 T02240203  RH  088%=      5-min Rain = 0
KTH1 031055Z 20003KT 22/20 A2998 RMK A01 T02240203  RH  088%=      5-min Rain = 0
KTH1 031056Z 21003KT 22/20 A2998 RMK A01 T02240203  RH  088%=      5-min Rain = 0
KTH1 031057Z 21003KT 22/20 A2998 RMK A01 T02240203  RH  088%=      5-min Rain = 0
KTH1 031058Z 21003KT 23/20 A2998 RMK A01 T02250203  RH  088%=      5-min Rain = 0
KTH1 031059Z 21003KT 22/20 A2998 RMK A01 T02240203  RH  088%=      5-min Rain = 0
KTH1 031100Z 21002KT 22/20 A2998 RMK A01 T02240204  RH  088%=      5-min Rain = 0
KTH1 031101Z 21003KT 22/20 A2998 RMK A01 T02240204  RH  088%=      5-min Rain = 0
KTH1 031102Z 21003KT 23/20 A2998 RMK A01 T02250204  RH  088%=      5-min Rain = 0
KTH1 031103Z 21003KT 22/20 A2998 RMK A01 T02240204  RH  088%=      5-min Rain = 0
KTH1 031104Z 21003KT 22/20 A2998 RMK A01 T02240203  RH  088%=      5-min Rain = 0
KTH1 031105Z 21003KT 22/20 A2998 RMK A01 T02230204  RH  088%=      5-min Rain = 0
KTH1 031106Z 21003KT 22/20 A2998 RMK A01 T02230203  RH  089%=      5-min Rain = 0
KTH1 031107Z 21003KT 22/20 A2998 RMK A01 T02230203  RH  089%=      5-min Rain = 0
KTH1 031108Z 22002KT 22/20 A2998 RMK A01 T02230204  RH  089%=      5-min Rain = 0
KTH1 031109Z 23003KT 22/20 A2998 RMK A01 T02230204  RH  089%=      5-min Rain = 0
KTH1 031110Z 23003KT 22/21 A2998 RMK A01 T02230205  RH  089%=      5-min Rain = 0
KTH1 031111Z 23003KT 22/21 A2998 RMK A01 T02230205  RH  089%=      5-min Rain = 0
KTH1 031112Z 24003KT 22/21 A2998 RMK A01 T02240205  RH  089%=      5-min Rain = 0
KTH1 031113Z 24003KT 23/21 A2999 RMK A01 T02250205  RH  088%=      5-min Rain = 0
KTH1 031114Z 24003KT 23/21 A2999 RMK A01 T02260206  RH  088%=      5-min Rain = 0
KTH1 031115Z 24003KT 23/21 A2999 RMK A01 T02260206  RH  088%=      5-min Rain = 0
KTH1 031116Z 24003KT 23/21 A2999 RMK A01 T02260206  RH  088%=      5-min Rain = 0
KTH1 031117Z 24003KT 23/21 A2999 RMK A01 T02270207  RH  088%=      5-min Rain = 0
KTH1 031118Z 25002KT 23/21 A2999 RMK A01 T02270207  RH  088%=      5-min Rain = 0
KTH1 031119Z 25003KT 23/21 A2999 RMK A01 T02270208  RH  089%=      5-min Rain = 0
KTH1 031120Z 25003KT 23/21 A2999 RMK A01 T02270208  RH  089%=      5-min Rain = 0
KTH1 031121Z 26003KT 23/21 A2999 RMK A01 T02270208  RH  089%=      5-min Rain = 0
KTH1 031122Z 26002KT 23/21 A2999 RMK A01 T02270209  RH  089%=      5-min Rain = 0
KTH1 031123Z 27002KT 23/21 A2999 RMK A01 T02280209  RH  089%=      5-min Rain = 0
KTH1 031124Z 28001KT 23/21 A2999 RMK A01 T02280209  RH  089%=      5-min Rain = 0
KTH1 031125Z 27002KT 23/21 A2999 RMK A01 T02280208  RH  088%=      5-min Rain = 0
KTH1 031126Z 23002KT 23/21 A2999 RMK A01 T02270207  RH  088%=      5-min Rain = 0
KTH1 031127Z 25002KT 23/21 A2999 RMK A01 T02260206  RH  089%=      5-min Rain = 0
KTH1 031128Z 23000KT 23/21 A2999 RMK A01 T02250206  RH  089%=      5-min Rain = 0
KTH1 031129Z 24000KT 22/21 A2999 RMK A01 T02240206  RH  089%=      5-min Rain = 0
KTH1 031130Z 23001KT 22/21 A2999 RMK A01 T02230206  RH  090%=      5-min Rain = 0
KTH1 031131Z 24000KT 22/21 A2999 RMK A01 T02220206  RH  090%=      5-min Rain = 0
KTH1 031132Z 00000KT 22/21 A2999 RMK A01 T02220206  RH  091%=      5-min Rain = 0
KTH1 031133Z 00000KT 22/21 A2999 RMK A01 T02210206  RH  091%=      5-min Rain = 0
KTH1 031134Z 22001KT 22/21 A2999 RMK A01 T02210206  RH  091%=      5-min Rain = 0
KTH1 031135Z 22001KT 22/21 A2999 RMK A01 T02210207  RH  092%=      5-min Rain = 0
KTH1 031136Z 23000KT 22/21 A2999 RMK A01 T02200206  RH  092%=      5-min Rain = 0
KTH1 031137Z 22002KT 22/21 A2999 RMK A01 T02200206  RH  092%=      5-min Rain = 0
KTH1 031138Z 21001KT 22/21 A2999 RMK A01 T02200207  RH  092%=      5-min Rain = 0
KTH1 031139Z 22001KT 22/21 A2999 RMK A01 T02190207  RH  093%=      5-min Rain = 0
KTH1 031140Z 20002KT 22/21 A2999 RMK A01 T02190207  RH  092%=      5-min Rain = 0
KTH1 031141Z 19001KT 22/21 A2999 RMK A01 T02210207  RH  092%=      5-min Rain = 0
KTH1 031142Z 18002KT 22/21 A2999 RMK A01 T02210207  RH  091%=      5-min Rain = 0
KTH1 031143Z 17002KT 22/21 A2999 RMK A01 T02220206  RH  091%=      5-min Rain = 0
KTH1 031144Z 18002KT 22/21 A2999 RMK A01 T02220206  RH  091%=      5-min Rain = 0
KTH1 031145Z 17002KT 22/21 A2999 RMK A01 T02220206  RH  090%=      5-min Rain = 0
KTH1 031146Z 18002KT 22/21 A2999 RMK A01 T02220205  RH  090%=      5-min Rain = 0
KTH1 031147Z 19001KT 22/21 A2999 RMK A01 T02230205  RH  090%=      5-min Rain = 0
KTH1 031148Z 18001KT 22/21 A2999 RMK A01 T02230206  RH  090%=      5-min Rain = 0
KTH1 031149Z 18001KT 22/21 A2999 RMK A01 T02230205  RH  090%=      5-min Rain = 0
KTH1 031150Z 18001KT 22/21 A2999 RMK A01 T02230205  RH  090%=      5-min Rain = 0
KTH1 031151Z 19002KT 22/21 A2999 RMK A01 T02230205  RH  090%=      5-min Rain = 0
KTH1 031152Z 20002KT 22/21 A2999 RMK A01 T02230205  RH  090%=      5-min Rain = 0
KTH1 031153Z 20002KT 22/21 A2999 RMK A01 T02230205  RH  090%=      5-min Rain = 0
KTH1 031154Z 20002KT 22/21 A2999 RMK A01 T02230205  RH  090%=      5-min Rain = 0
KTH1 031155Z 22002KT 22/21 A2999 RMK A01 T02230205  RH  089%=      5-min Rain = 0
KTH1 031156Z 22002KT 22/21 A2999 RMK A01 T02230205  RH  090%=      5-min Rain = 0
KTH1 031157Z 23002KT 22/21 A2999 RMK A01 T02230205  RH  090%=      5-min Rain = 0
KTH1 031158Z 23003KT 22/21 A2999 RMK A01 T02230206  RH  090%=      5-min Rain = 0
KTH1 031159Z 24003KT 22/21 A2999 RMK A01 T02230207  RH  091%=      5-min Rain = 0
KTH1 031200Z 24002KT 22/21 A2999 RMK A01 T02230208  RH  091%=      5-min Rain = 0
KTH1 031201Z 25002KT 22/21 A2999 RMK A01 T02240208  RH  091%=      5-min Rain = 0
KTH1 031202Z 24003KT 22/21 A2999 RMK A01 T02240208  RH  090%=      5-min Rain = 0
KTH1 031203Z 24003KT 23/21 A2999 RMK A01 T02250209  RH  090%=      5-min Rain = 0
KTH1 031204Z 24002KT 23/21 A2999 RMK A01 T02250208  RH  090%=      5-min Rain = 0
KTH1 031205Z 24003KT 23/21 A2999 RMK A01 T02260208  RH  090%=      5-min Rain = 0
KTH1 031206Z 23003KT 23/21 A2999 RMK A01 T02270208  RH  089%=      5-min Rain = 0
KTH1 031207Z 22002KT 23/21 A2999 RMK A01 T02270208  RH  089%=      5-min Rain = 0
KTH1 031208Z 23002KT 23/21 A30 RMK A01 T02270208  RH  089%=      5-min Rain = 0
KTH1 031209Z 23003KT 23/21 A30 RMK A01 T02270207  RH  089%=      5-min Rain = 0
KTH1 031210Z 23002KT 23/21 A30 RMK A01 T02270207  RH  089%=      5-min Rain = 0
KTH1 031211Z 24003KT 23/21 A30 RMK A01 T02270207  RH  088%=      5-min Rain = 0
KTH1 031212Z 23002KT 23/21 A30 RMK A01 T02280207  RH  088%=      5-min Rain = 0
KTH1 031213Z 24002KT 23/21 A30 RMK A01 T02280208  RH  088%=      5-min Rain = 0
KTH1 031214Z 22002KT 23/21 A30 RMK A01 T02280208  RH  088%=      5-min Rain = 0
KTH1 031215Z 23002KT 23/21 A30 RMK A01 T02280208  RH  088%=      5-min Rain = 0
KTH1 031216Z 22001KT 23/21 A30 RMK A01 T02280208  RH  088%=      5-min Rain = 0
KTH1 031217Z 22001KT 23/21 A30 RMK A01 T02280208  RH  088%=      5-min Rain = 0
KTH1 031218Z 21001KT 23/21 A30 RMK A01 T02290208  RH  088%=      5-min Rain = 0
KTH1 031219Z 19001KT 23/21 A30 RMK A01 T02290208  RH  088%=      5-min Rain = 0
KTH1 031220Z 16001KT 23/21 A3001 RMK A01 T02300207  RH  087%=      5-min Rain = 0
KTH1 031221Z 16001KT 23/21 A3001 RMK A01 T02300207  RH  087%=      5-min Rain = 0
KTH1 031222Z 12001KT 23/21 A3001 RMK A01 T02300207  RH  087%=      5-min Rain = 0
KTH1 031223Z 10002KT 23/21 A3001 RMK A01 T02310208  RH  087%=      5-min Rain = 0
KTH1 031224Z 10002KT 23/21 A3001 RMK A01 T02320209  RH  087%=      5-min Rain = 0
KTH1 031225Z 08002KT 23/21 A3001 RMK A01 T02320209  RH  087%=      5-min Rain = 0
KTH1 031226Z 08004KT 23/21 A3001 RMK A01 T02330210  RH  087%=      5-min Rain = 0
KTH1 031227Z 08004KT 23/21 A3001 RMK A01 T02330210  RH  087%=      5-min Rain = 0
KTH1 031228Z 07004KT 23/21 A3001 RMK A01 T02330211  RH  087%=      5-min Rain = 0
KTH1 031229Z 07004KT 23/21 A3001 RMK A01 T02330212  RH  088%=      5-min Rain = 0
KTH1 031230Z 08005KT 23/21 A3001 RMK A01 T02330212  RH  088%=      5-min Rain = 0
KTH1 031231Z 07005KT 23/21 A3001 RMK A01 T02330211  RH  087%=      5-min Rain = 0
KTH1 031232Z 07006KT 23/21 A3001 RMK A01 T02320210  RH  087%=      5-min Rain = 0
KTH1 031233Z 07007KT 23/21 A3001 RMK A01 T02310209  RH  088%=      5-min Rain = 0
KTH1 031234Z 07006KT 23/21 A3001 RMK A01 T02290209  RH  088%=      5-min Rain = 0
KTH1 031235Z 08004KT 23/21 A3001 RMK A01 T02290209  RH  089%=      5-min Rain = 0
KTH1 031236Z 09004KT 23/21 A3001 RMK A01 T02290209  RH  089%=      5-min Rain = 0
KTH1 031237Z 08005KT 23/21 A3001 RMK A01 T02290209  RH  089%=      5-min Rain = 0
KTH1 031238Z 09004KT 23/21 A3001 RMK A01 T02290209  RH  089%=      5-min Rain = 0
KTH1 031239Z 10005KT 23/21 A3001 RMK A01 T02290209  RH  089%=      5-min Rain = 0
KTH1 031240Z 09005KT 23/21 A3001 RMK A01 T02290209  RH  089%=      5-min Rain = 0
KTH1 031241Z 10004KT 23/21 A3001 RMK A01 T02290209  RH  088%=      5-min Rain = 0
KTH1 031242Z 11004KT 23/21 A3001 RMK A01 T02300210  RH  088%=      5-min Rain = 0
KTH1 031243Z 11005KT 23/21 A3001 RMK A01 T02310209  RH  088%=      5-min Rain = 0
KTH1 031244Z 11004KT 23/21 A3001 RMK A01 T02310210  RH  088%=      5-min Rain = 0
KTH1 031245Z 10005KT 23/21 A3002 RMK A01 T02320210  RH  087%=      5-min Rain = 0
KTH1 031246Z 10006KT 23/21 A3002 RMK A01 T02320210  RH  087%=      5-min Rain = 0
KTH1 031247Z 11004KT 23/21 A3002 RMK A01 T02330211  RH  087%=      5-min Rain = 0
KTH1 031248Z 11003KT 23/21 A3002 RMK A01 T02340213  RH  088%=      5-min Rain = 0
KTH1 031249Z 11004KT 24/21 A3002 RMK A01 T02360213  RH  087%=      5-min Rain = 0
KTH1 031250Z 11005KT 24/21 A3002 RMK A01 T02370211  RH  086%=      5-min Rain = 0
KTH1 031251Z 11004KT 24/21 A3002 RMK A01 T02370211  RH  085%=      5-min Rain = 0
KTH1 031252Z 13005KT 24/21 A3002 RMK A01 T02390213  RH  085%=      5-min Rain = 0
KTH1 031253Z 12005KT 24/21 A3002 RMK A01 T02390213  RH  085%=      5-min Rain = 0
KTH1 031254Z 12005KT 24/21 A3002 RMK A01 T02410213  RH  084%=      5-min Rain = 0
KTH1 031255Z 12004KT 24/21 A3002 RMK A01 T02410212  RH  084%=      5-min Rain = 0
KTH1 031256Z 12005KT 24/21 A3002 RMK A01 T02420213  RH  084%=      5-min Rain = 0
KTH1 031257Z 11005KT 24/21 A3002 RMK A01 T02430212  RH  083%=      5-min Rain = 0
KTH1 031258Z 12004KT 24/21 A3001 RMK A01 T02430213  RH  083%=      5-min Rain = 0
KTH1 031259Z 12004KT 24/21 A3002 RMK A01 T02430212  RH  083%=      5-min Rain = 0
KTH1 031300Z 12004KT 24/21 A3002 RMK A01 T02430213  RH  083%=      5-min Rain = 0
KTH1 031301Z 11003KT 24/21 A3002 RMK A01 T02430213  RH  083%=      5-min Rain = 0
KTH1 031302Z 13003KT 24/21 A3002 RMK A01 T02440214  RH  083%=      5-min Rain = 0
KTH1 031303Z 13003KT 25/21 A3002 RMK A01 T02450214  RH  083%=      5-min Rain = 0
KTH1 031304Z 13002KT 25/22 A3002 RMK A01 T02460215  RH  083%=      5-min Rain = 0
KTH1 031305Z 13005KT 25/22 A3002 RMK A01 T02470215  RH  082%=      5-min Rain = 0
KTH1 031306Z 13006KT 25/21 A3002 RMK A01 T02470214  RH  081%=      5-min Rain = 0
KTH1 031307Z 13004KT 25/21 A3002 RMK A01 T02480214  RH  082%=      5-min Rain = 0
KTH1 031308Z 12003KT 25/22 A3002 RMK A01 T02480215  RH  082%=      5-min Rain = 0
KTH1 031309Z 13003KT 25/21 A3002 RMK A01 T02480214  RH  082%=      5-min Rain = 0
KTH1 031310Z 13003KT 25/22 A3002 RMK A01 T02490215  RH  082%=      5-min Rain = 0
KTH1 031311Z 13004KT 25/21 A3002 RMK A01 T02490213  RH  080%=      5-min Rain = 0
KTH1 031312Z 13003KT 25/21 A3002 RMK A01 T02490214  RH  081%=      5-min Rain = 0
KTH1 031313Z 11003KT 25/22 A3002 RMK A01 T02500215  RH  081%=      5-min Rain = 0
KTH1 031314Z 11005KT 25/21 A3002 RMK A01 T02510213  RH  079%=      5-min Rain = 0
KTH1 031315Z 11004KT 25/21 A3003 RMK A01 T02510214  RH  080%=      5-min Rain = 0
KTH1 031316Z 11004KT 25/22 A3003 RMK A01 T02510215  RH  080%=      5-min Rain = 0
KTH1 031317Z 12003KT 25/21 A3003 RMK A01 T02530214  RH  079%=      5-min Rain = 0
KTH1 031318Z 13003KT 25/22 A3003 RMK A01 T02540216  RH  080%=      5-min Rain = 0
KTH1 031319Z 12003KT 26/22 A3003 RMK A01 T02550215  RH  079%=      5-min Rain = 0
KTH1 031320Z 12005KT 26/21 A3003 RMK A01 T02550214  RH  078%=      5-min Rain = 0
KTH1 031321Z 13004KT 26/22 A3003 RMK A01 T02550216  RH  079%=      5-min Rain = 0
KTH1 031322Z 11004KT 26/22 A3003 RMK A01 T02560216  RH  079%=      5-min Rain = 0
KTH1 031323Z 13004KT 26/22 A3003 RMK A01 T02570216  RH  078%=      5-min Rain = 0
KTH1 031324Z 13003KT 26/22 A3003 RMK A01 T02580215  RH  077%=      5-min Rain = 0
KTH1 031325Z 16005KT 26/22 A3003 RMK A01 T02590217  RH  078%=      5-min Rain = 0
KTH1 031326Z 16005KT 26/21 A3003 RMK A01 T02600214  RH  076%=      5-min Rain = 0
KTH1 031327Z 16005KT 26/21 A3003 RMK A01 T02600213  RH  075%=      5-min Rain = 0
KTH1 031328Z 14002KT 26/21 A3003 RMK A01 T02600214  RH  076%=      5-min Rain = 0
KTH1 031329Z 16003KT 26/22 A3003 RMK A01 T02600216  RH  077%=      5-min Rain = 0
KTH1 031330Z 16003KT 26/22 A3003 RMK A01 T02610216  RH  076%=      5-min Rain = 0
KTH1 031331Z 16004KT 26/21 A3003 RMK A01 T02620214  RH  075%=      5-min Rain = 0
KTH1 031332Z 16003KT 26/21 A3003 RMK A01 T02620214  RH  075%=      5-min Rain = 0
KTH1 031333Z 17003KT 26/21 A3003 RMK A01 T02620214  RH  075%=      5-min Rain = 0
KTH1 031334Z 18005KT 26/21 A3003 RMK A01 T02620214  RH  075%=      5-min Rain = 0
KTH1 031335Z 18005KT 26/21 A3003 RMK A01 T02630213  RH  074%=      5-min Rain = 0
KTH1 031336Z 18004KT 26/21 A3003 RMK A01 T02630211  RH  073%=      5-min Rain = 0
KTH1 031337Z 18003KT 26/21 A3003 RMK A01 T02640212  RH  073%=      5-min Rain = 0
KTH1 031338Z 18004KT 27/21 A3003 RMK A01 T02650211  RH  072%=      5-min Rain = 0
KTH1 031339Z 18005KT 27/21 A3003 RMK A01 T02660209  RH  071%=      5-min Rain = 0
KTH1 031340Z 18005KT 27/21 A3003 RMK A01 T02670208  RH  070%=      5-min Rain = 0
KTH1 031341Z 17004KT 27/21 A3003 RMK A01 T02670208  RH  070%=      5-min Rain = 0
KTH1 031342Z 17004KT 27/21 A3003 RMK A01 T02680210  RH  071%=      5-min Rain = 0
KTH1 031343Z 18003KT 27/21 A3003 RMK A01 T02680211  RH  071%=      5-min Rain = 0
KTH1 031344Z 19003KT 27/21 A3003 RMK A01 T02690211  RH  070%=      5-min Rain = 0
KTH1 031345Z 17005KT 27/21 A3003 RMK A01 T02710209  RH  069%=      5-min Rain = 0
KTH1 031346Z 20004KT 27/21 A3003 RMK A01 T02710208  RH  069%=      5-min Rain = 0
KTH1 031347Z 18003KT 27/21 A3003 RMK A01 T02710209  RH  069%=      5-min Rain = 0
KTH1 031348Z 17003KT 27/21 A3003 RMK A01 T02710212  RH  070%=      5-min Rain = 0
KTH1 031349Z 17004KT 27/21 A3003 RMK A01 T02730210  RH  068%=      5-min Rain = 0
KTH1 031350Z 18004KT 27/21 A3003 RMK A01 T02740208  RH  067%=      5-min Rain = 0
KTH1 031351Z 18005KT 27/21 A3003 RMK A01 T02740208  RH  067%=      5-min Rain = 0
KTH1 031352Z 18004KT 28/21 A3003 RMK A01 T02750207  RH  066%=      5-min Rain = 0
KTH1 031353Z 18003KT 28/21 A3003 RMK A01 T02750209  RH  067%=      5-min Rain = 0
KTH1 031354Z 18003KT 28/21 A3003 RMK A01 T02750209  RH  067%=      5-min Rain = 0
KTH1 031355Z 20004KT 28/20 A3003 RMK A01 T02760204  RH  065%=      5-min Rain = 0
KTH1 031356Z 18003KT 28/21 A3003 RMK A01 T02770207  RH  066%=      5-min Rain = 0
KTH1 031357Z 18002KT 28/20 A3003 RMK A01 T02780203  RH  064%=      5-min Rain = 0
KTH1 031358Z 16003KT 28/21 A3003 RMK A01 T02790208  RH  065%=      5-min Rain = 0
KTH1 031359Z 17004KT 28/21 A3003 RMK A01 T02800207  RH  064%=      5-min Rain = 0
KTH1 031400Z 19003KT 28/21 A3003 RMK A01 T02800207  RH  064%=      5-min Rain = 0
KTH1 031401Z 19004KT 28/20 A3003 RMK A01 T02810204  RH  063%=      5-min Rain = 0
KTH1 031402Z 17003KT 28/21 A3003 RMK A01 T02800207  RH  064%=      5-min Rain = 0
KTH1 031403Z 16003KT 28/21 A3003 RMK A01 T02810205  RH  063%=      5-min Rain = 0
KTH1 031404Z 17002KT 28/20 A3003 RMK A01 T02820204  RH  063%=      5-min Rain = 0
KTH1 031405Z 15001KT 28/21 A3003 RMK A01 T02820207  RH  064%=      5-min Rain = 0
KTH1 031406Z 16002KT 28/21 A3003 RMK A01 T02840212  RH  065%=      5-min Rain = 0
KTH1 031407Z 17003KT 29/21 A3003 RMK A01 T02870210  RH  063%=      5-min Rain = 0
KTH1 031408Z 16003KT 29/21 A3003 RMK A01 T02870207  RH  062%=      5-min Rain = 0
KTH1 031409Z 17003KT 29/21 A3004 RMK A01 T02870206  RH  062%=      5-min Rain = 0
KTH1 031410Z 15004KT 29/21 A3004 RMK A01 T02870206  RH  062%=      5-min Rain = 0
KTH1 031411Z 16003KT 29/21 A3004 RMK A01 T02880206  RH  061%=      5-min Rain = 0
KTH1 031412Z 18004KT 29/21 A3004 RMK A01 T02870208  RH  062%=      5-min Rain = 0
KTH1 031413Z 17003KT 29/21 A3004 RMK A01 T02880206  RH  061%=      5-min Rain = 0
KTH1 031414Z 19004KT 29/21 A3004 RMK A01 T02870206  RH  062%=      5-min Rain = 0
KTH1 031415Z 18003KT 29/21 A3004 RMK A01 T02870205  RH  061%=      5-min Rain = 0
KTH1 031416Z 17004KT 29/21 A3004 RMK A01 T02870207  RH  062%=      5-min Rain = 0
KTH1 031417Z 17004KT 29/21 A3004 RMK A01 T02870205  RH  061%=      5-min Rain = 0
KTH1 031418Z 18003KT 29/21 A3004 RMK A01 T02870207  RH  062%=      5-min Rain = 0
KTH1 031419Z 16003KT 29/21 A3004 RMK A01 T02880209  RH  062%=      5-min Rain = 0
KTH1 031420Z 17003KT 29/21 A3004 RMK A01 T02890208  RH  062%=      5-min Rain = 0
KTH1 031421Z 18004KT 29/21 A3004 RMK A01 T02900209  RH  062%=      5-min Rain = 0
KTH1 031422Z 18004KT 29/21 A3004 RMK A01 T02920208  RH  061%=      5-min Rain = 0
KTH1 031423Z 18003KT 29/21 A3004 RMK A01 T02920208  RH  061%=      5-min Rain = 0
KTH1 031424Z 18001KT 29/21 A3004 RMK A01 T02920208  RH  060%=      5-min Rain = 0
KTH1 031425Z 18003KT 29/21 A3004 RMK A01 T02930213  RH  062%=      5-min Rain = 0
KTH1 031426Z 19003KT 29/21 A3004 RMK A01 T02940208  RH  060%=      5-min Rain = 0
KTH1 031427Z 19006KT 29/21 A3004 RMK A01 T02940210  RH  060%=      5-min Rain = 0
KTH1 031428Z 21006KT 29/21 A3004 RMK A01 T02940206  RH  059%=      5-min Rain = 0
KTH1 031429Z 21003KT 29/21 A3004 RMK A01 T02930207  RH  060%=      5-min Rain = 0
KTH1 031430Z 19002KT 29/21 A3004 RMK A01 T02920209  RH  061%=      5-min Rain = 0
KTH1 031431Z 17003G8KT 29/21 A3004 RMK A01 T02930212  RH  062%=      5-min Rain = 0
KTH1 031432Z 16003KT 30/21 A3004 RMK A01 T02950210  RH  060%=      5-min Rain = 0
KTH1 031433Z 18003KT 30/21 A3004 RMK A01 T02960209  RH  060%=      5-min Rain = 0
KTH1 031434Z 20006KT 30/21 A3004 RMK A01 T02960209  RH  060%=      5-min Rain = 0
KTH1 031435Z 20006KT 30/21 A3004 RMK A01 T02960208  RH  059%=      5-min Rain = 0
KTH1 031436Z 20005KT 30/21 A3004 RMK A01 T02950208  RH  059%=      5-min Rain = 0
KTH1 031437Z 19006KT 29/21 A3004 RMK A01 T02940207  RH  060%=      5-min Rain = 0
KTH1 031438Z 19006KT 29/21 A3004 RMK A01 T02930208  RH  060%=      5-min Rain = 0
KTH1 031439Z 19005KT 29/21 A3004 RMK A01 T02930208  RH  060%=      5-min Rain = 0
KTH1 031440Z 22004KT 29/21 A3004 RMK A01 T02930210  RH  061%=      5-min Rain = 0
KTH1 031441Z 21004KT 29/21 A3004 RMK A01 T02930209  RH  061%=      5-min Rain = 0
KTH1 031442Z 19004KT 29/21 A3003 RMK A01 T02930211  RH  061%=      5-min Rain = 0
KTH1 031443Z 19005KT 29/21 A3003 RMK A01 T02940211  RH  061%=      5-min Rain = 0
KTH1 031444Z 21004KT 30/21 A3003 RMK A01 T02950209  RH  060%=      5-min Rain = 0
KTH1 031445Z 18003KT 30/21 A3003 RMK A01 T02950211  RH  061%=      5-min Rain = 0
KTH1 031446Z 19004KT 30/21 A3003 RMK A01 T02960214  RH  061%=      5-min Rain = 0
KTH1 031447Z 21005KT 30/21 A3003 RMK A01 T02970210  RH  060%=      5-min Rain = 0
KTH1 031448Z 21004KT 30/21 A3003 RMK A01 T02970210  RH  060%=      5-min Rain = 0
KTH1 031449Z 23003KT 30/21 A3003 RMK A01 T02980210  RH  059%=      5-min Rain = 0
KTH1 031450Z 21003KT 30/21 A3003 RMK A01 T02970214  RH  061%=      5-min Rain = 0
KTH1 031451Z 21005KT 30/21 A3003 RMK A01 T02980211  RH  060%=      5-min Rain = 0
KTH1 031452Z 21004KT 30/21 A3003 RMK A01 T02990213  RH  060%=      5-min Rain = 0
KTH1 031453Z 21004KT 30/21 A3003 RMK A01 T02990214  RH  060%=      5-min Rain = 0
KTH1 031454Z 21005KT 30/21 A3003 RMK A01 T02990210  RH  059%=      5-min Rain = 0
KTH1 031455Z 22004KT 30/21 A3003 RMK A01 T02980211  RH  059%=      5-min Rain = 0
KTH1 031456Z 20005KT 30/21 A3003 RMK A01 T02980211  RH  060%=      5-min Rain = 0
KTH1 031457Z 22006KT 30/21 A3003 RMK A01 T02980211  RH  060%=      5-min Rain = 0
KTH1 031458Z 20004KT 30/21 A3003 RMK A01 T02980214  RH  061%=      5-min Rain = 0
KTH1 031459Z 22006KT 30/21 A3003 RMK A01 T02990211  RH  059%=      5-min Rain = 0
KTH1 031500Z 19007KT 30/21 A3003 RMK A01 T03000212  RH  060%=      5-min Rain = 0
KTH1 031501Z 20006KT 30/21 A3003 RMK A01 T03000212  RH  060%=      5-min Rain = 0
KTH1 031502Z 22007KT 30/21 A3003 RMK A01 T03000210  RH  059%=      5-min Rain = 0
KTH1 031503Z 24008KT 30/21 A3003 RMK A01 T03000212  RH  059%=      5-min Rain = 0
KTH1 031504Z 24008KT 30/21 A3003 RMK A01 T03000211  RH  059%=      5-min Rain = 0
KTH1 031505Z 23006KT 30/21 A3003 RMK A01 T02980212  RH  060%=      5-min Rain = 0
KTH1 031506Z 24008KT 30/21 A3003 RMK A01 T02970211  RH  060%=      5-min Rain = 0
KTH1 031507Z 21005KT 30/21 A3003 RMK A01 T02970212  RH  060%=      5-min Rain = 0
KTH1 031508Z 21006KT 30/21 A3003 RMK A01 T02980213  RH  060%=      5-min Rain = 0
KTH1 031509Z 23008KT 30/21 A3003 RMK A01 T03000213  RH  059%=      5-min Rain = 0
KTH1 031510Z 23005KT 30/21 A3003 RMK A01 T03010213  RH  059%=      5-min Rain = 0
KTH1 031511Z 24006KT 30/21 A3003 RMK A01 T03010212  RH  059%=      5-min Rain = 0
KTH1 031512Z 22005KT 30/22 A3003 RMK A01 T03000215  RH  060%=      5-min Rain = 0
KTH1 031513Z 24005KT 30/22 A3003 RMK A01 T03010215  RH  060%=      5-min Rain = 0
KTH1 031514Z 23006KT 30/22 A3003 RMK A01 T03020215  RH  060%=      5-min Rain = 0
KTH1 031515Z 23006KT 30/22 A3003 RMK A01 T03020215  RH  060%=      5-min Rain = 0
KTH1 031516Z 24008KT 30/21 A3003 RMK A01 T03020214  RH  059%=      5-min Rain = 0
KTH1 031517Z 22006KT 30/22 A3003 RMK A01 T03020216  RH  060%=      5-min Rain = 0
KTH1 031518Z 22003KT 30/21 A3003 RMK A01 T03010213  RH  059%=      5-min Rain = 0
KTH1 031519Z 21004KT 30/22 A3003 RMK A01 T03020218  RH  061%=      5-min Rain = 0
KTH1 031520Z 23004KT 30/22 A3003 RMK A01 T03030218  RH  061%=      5-min Rain = 0
KTH1 031521Z 22005KT 30/22 A3003 RMK A01 T03040215  RH  059%=      5-min Rain = 0
KTH1 031522Z 20006KT 30/22 A3003 RMK A01 T03040217  RH  060%=      5-min Rain = 0
KTH1 031523Z 20004G9KT 31/22 A3003 RMK A01 T03050216  RH  059%=      5-min Rain = 0
KTH1 031524Z 22006KT 31/22 A3003 RMK A01 T03070217  RH  059%=      5-min Rain = 0
KTH1 031525Z 24006KT 31/21 A3003 RMK A01 T03070214  RH  057%=      5-min Rain = 0
KTH1 031526Z 24004KT 31/22 A3003 RMK A01 T03050217  RH  059%=      5-min Rain = 0
KTH1 031527Z 26005KT 31/22 A3003 RMK A01 T03050219  RH  060%=      5-min Rain = 0
KTH1 031528Z 21004KT 31/22 A3003 RMK A01 T03070221  RH  060%=      5-min Rain = 0
KTH1 031529Z 23005KT 31/22 A3003 RMK A01 T03080217  RH  058%=      5-min Rain = 0
KTH1 031530Z 23006KT 31/22 A3003 RMK A01 T03080215  RH  058%=      5-min Rain = 0
KTH1 031531Z 21004KT 31/22 A3003 RMK A01 T03080221  RH  060%=      5-min Rain = 0
KTH1 031532Z 21006KT 31/22 A3003 RMK A01 T03100219  RH  058%=      5-min Rain = 0
KTH1 031533Z 21004KT 31/22 A3003 RMK A01 T03110215  RH  057%=      5-min Rain = 0
KTH1 031534Z 20005KT 31/22 A3003 RMK A01 T03100216  RH  058%=      5-min Rain = 0
KTH1 031535Z 21005KT 31/22 A3003 RMK A01 T03100215  RH  057%=      5-min Rain = 0
KTH1 031536Z 21005KT 31/21 A3003 RMK A01 T03090214  RH  057%=      5-min Rain = 0
KTH1 031537Z 24006KT 31/22 A3002 RMK A01 T03090218  RH  059%=      5-min Rain = 0
KTH1 031538Z 23005KT 31/22 A3003 RMK A01 T03090221  RH  059%=      5-min Rain = 0
KTH1 031539Z 23005KT 31/22 A3003 RMK A01 T03110218  RH  058%=      5-min Rain = 0
KTH1 031540Z 24005KT 31/22 A3003 RMK A01 T03110215  RH  057%=      5-min Rain = 0
KTH1 031541Z 23006KT 31/22 A3002 RMK A01 T03100219  RH  058%=      5-min Rain = 0
KTH1 031542Z 21007KT 31/22 A3002 RMK A01 T03100219  RH  058%=      5-min Rain = 0
KTH1 031543Z 23007KT 31/22 A3002 RMK A01 T03120217  RH  057%=      5-min Rain = 0
KTH1 031544Z 23006KT 31/22 A3002 RMK A01 T03120217  RH  057%=      5-min Rain = 0
KTH1 031545Z 22007KT 31/22 A3002 RMK A01 T03110219  RH  058%=      5-min Rain = 0
KTH1 031546Z 22004KT 31/22 A3002 RMK A01 T03110216  RH  057%=      5-min Rain = 0
KTH1 031547Z 24005KT 31/22 A3002 RMK A01 T03110217  RH  057%=      5-min Rain = 0
KTH1 031548Z 24006KT 31/22 A3002 RMK A01 T03120220  RH  058%=      5-min Rain = 0
KTH1 031549Z 22005KT 31/22 A3003 RMK A01 T03140223  RH  059%=      5-min Rain = 0
KTH1 031550Z 24004KT 32/22 A3003 RMK A01 T03150219  RH  057%=      5-min Rain = 0
KTH1 031551Z 23004KT 32/22 A3003 RMK A01 T03150220  RH  057%=      5-min Rain = 0
KTH1 031552Z 24003KT 32/22 A3003 RMK A01 T03150222  RH  058%=      5-min Rain = 0
KTH1 031553Z 19005KT 32/22 A3003 RMK A01 T03150219  RH  057%=      5-min Rain = 0
KTH1 031554Z 20006KT 32/22 A3003 RMK A01 T03160220  RH  057%=      5-min Rain = 0
KTH1 031555Z 20004KT 32/22 A3003 RMK A01 T03180219  RH  056%=      5-min Rain = 0
KTH1 031556Z 20003KT 32/22 A3003 RMK A01 T03180217  RH  055%=      5-min Rain = 0
KTH1 031557Z 23004KT 32/22 A3003 RMK A01 T03180220  RH  056%=      5-min Rain = 0
KTH1 031558Z 23004KT 32/22 A3003 RMK A01 T03180221  RH  056%=      5-min Rain = 0
KTH1 031559Z 21005KT 32/22 A3003 RMK A01 T03180222  RH  057%=      5-min Rain = 0
KTH1 031600Z 21004KT 32/22 A3003 RMK A01 T03200218  RH  055%=      5-min Rain = 0
KTH1 031601Z 23006G11KT 32/22 A3003 RMK A01 T03200219  RH  055%=      5-min Rain = 0
KTH1 031602Z 23006KT 32/22 A3003 RMK A01 T03210219  RH  055%=      5-min Rain = 0
KTH1 031603Z 22007KT 32/22 A3003 RMK A01 T03200217  RH  055%=      5-min Rain = 0
KTH1 031604Z 21005KT 32/21 A3003 RMK A01 T03190214  RH  054%=      5-min Rain = 0
KTH1 031605Z 24005KT 32/22 A3002 RMK A01 T03190217  RH  055%=      5-min Rain = 0
KTH1 031606Z 24005KT 32/22 A3002 RMK A01 T03200217  RH  054%=      5-min Rain = 0
KTH1 031607Z 25006KT 32/22 A3002 RMK A01 T03210219  RH  055%=      5-min Rain = 0
KTH1 031608Z 24009KT 32/22 A3002 RMK A01 T03200219  RH  055%=      5-min Rain = 0
KTH1 031609Z 24008KT 32/22 A3002 RMK A01 T03200218  RH  055%=      5-min Rain = 0
KTH1 031610Z 24007KT 32/21 A3002 RMK A01 T03200213  RH  053%=      5-min Rain = 0
KTH1 031611Z 25005KT 32/21 A3002 RMK A01 T03190214  RH  054%=      5-min Rain = 0
KTH1 031612Z 25008KT 32/22 A3002 RMK A01 T03190215  RH  054%=      5-min Rain = 0
KTH1 031613Z 26006KT 32/21 A3002 RMK A01 T03190214  RH  054%=      5-min Rain = 0
KTH1 031614Z 25006KT 32/22 A3002 RMK A01 T03190217  RH  055%=      5-min Rain = 0
KTH1 031615Z 24007KT 32/22 A3002 RMK A01 T03190215  RH  054%=      5-min Rain = 0
KTH1 031616Z 24007KT 32/21 A3002 RMK A01 T03200212  RH  053%=      5-min Rain = 0
KTH1 031617Z 25008KT 32/22 A3002 RMK A01 T03210216  RH  054%=      5-min Rain = 0
KTH1 031618Z 25008KT 32/22 A3002 RMK A01 T03210216  RH  054%=      5-min Rain = 0
KTH1 031619Z 26008KT 32/22 A3002 RMK A01 T03200223  RH  056%=      5-min Rain = 0
KTH1 031620Z 26008KT 32/23 A3002 RMK A01 T03210226  RH  057%=      5-min Rain = 0
KTH1 031621Z 26008KT 32/22 A3002 RMK A01 T03240221  RH  055%=      5-min Rain = 0
KTH1 031622Z 26007KT 33/22 A3002 RMK A01 T03250220  RH  054%=      5-min Rain = 0
KTH1 031623Z 26006KT 33/22 A3002 RMK A01 T03250224  RH  055%=      5-min Rain = 0
KTH1 031624Z 27006KT 33/22 A3002 RMK A01 T03260223  RH  055%=      5-min Rain = 0
KTH1 031625Z 26005KT 33/23 A3002 RMK A01 T03270225  RH  055%=      5-min Rain = 0
KTH1 031626Z 27005KT 33/23 A3002 RMK A01 T03300225  RH  054%=      5-min Rain = 0
KTH1 031627Z 27005KT 33/23 A3002 RMK A01 T03320232  RH  056%=      5-min Rain = 0
KTH1 031628Z 27005KT 33/22 A3002 RMK A01 T03340224  RH  052%=      5-min Rain = 0
KTH1 031629Z 26004KT 33/22 A3002 RMK A01 T03330221  RH  052%=      5-min Rain = 0
KTH1 031630Z 26005KT 33/22 A3002 RMK A01 T03320223  RH  053%=      5-min Rain = 0
KTH1 031631Z 26004KT 33/22 A3002 RMK A01 T03310220  RH  052%=      5-min Rain = 0
KTH1 031632Z 25006KT 33/22 A3002 RMK A01 T03300222  RH  053%=      5-min Rain = 0
KTH1 031633Z 25008KT 33/22 A3002 RMK A01 T03290218  RH  052%=      5-min Rain = 0
KTH1 031634Z 24007KT 33/22 A3002 RMK A01 T03270217  RH  052%=      5-min Rain = 0
KTH1 031635Z 25008KT 33/21 A3002 RMK A01 T03260214  RH  052%=      5-min Rain = 0
KTH1 031636Z 26006KT 33/21 A3002 RMK A01 T03250214  RH  052%=      5-min Rain = 0
KTH1 031637Z 26005KT 33/22 A3002 RMK A01 T03250217  RH  053%=      5-min Rain = 0
KTH1 031638Z 25006KT 33/22 A3002 RMK A01 T03260218  RH  053%=      5-min Rain = 0
KTH1 031639Z 25007KT 33/22 A3002 RMK A01 T03270217  RH  052%=      5-min Rain = 0
KTH1 031640Z 26006KT 33/22 A3002 RMK A01 T03260218  RH  053%=      5-min Rain = 0
KTH1 031641Z 25006KT 33/22 A3002 RMK A01 T03260216  RH  052%=      5-min Rain = 0
KTH1 031642Z 25003KT 33/22 A3002 RMK A01 T03260215  RH  052%=      5-min Rain = 0
KTH1 031643Z 27004KT 33/23 A3002 RMK A01 T03260225  RH  055%=      5-min Rain = 0
KTH1 031644Z 27002KT 33/22 A3002 RMK A01 T03300224  RH  054%=      5-min Rain = 0
KTH1 031645Z 26002KT 33/22 A3002 RMK A01 T03320221  RH  052%=      5-min Rain = 0
KTH1 031646Z 26002KT 33/22 A3002 RMK A01 T03330223  RH  053%=      5-min Rain = 0
KTH1 031647Z 31002KT 33/22 A3002 RMK A01 T03340221  RH  052%=      5-min Rain = 0
KTH1 031648Z 29003KT 33/22 A3002 RMK A01 T03340219  RH  051%=      5-min Rain = 0
KTH1 031649Z 28003KT 33/22 A3002 RMK A01 T03330219  RH  051%=      5-min Rain = 0
KTH1 031650Z 25002KT 33/22 A3002 RMK A01 T03330224  RH  053%=      5-min Rain = 0
KTH1 031651Z 27004KT 33/22 A3002 RMK A01 T03330224  RH  053%=      5-min Rain = 0
KTH1 031652Z 29004KT 33/22 A3002 RMK A01 T03340218  RH  051%=      5-min Rain = 0
KTH1 031653Z 29004KT 34/22 A3002 RMK A01 T03350219  RH  051%=      5-min Rain = 0
KTH1 031654Z 28004KT 34/22 A3002 RMK A01 T03350220  RH  051%=      5-min Rain = 0
KTH1 031655Z 29003KT 34/22 A3002 RMK A01 T03370216  RH  049%=      5-min Rain = 0
KTH1 031656Z 29002KT 34/22 A3002 RMK A01 T03380215  RH  049%=      5-min Rain = 0
KTH1 031657Z 26003KT 34/22 A3002 RMK A01 T03380216  RH  049%=      5-min Rain = 0
KTH1 031658Z 27004KT 34/22 A3002 RMK A01 T03370219  RH  050%=      5-min Rain = 0
KTH1 031659Z 25007KT 34/23 A3002 RMK A01 T03370225  RH  052%=      5-min Rain = 0
KTH1 031700Z 25007KT 34/22 A3002 RMK A01 T03350218  RH  050%=      5-min Rain = 0
KTH1 031701Z 25007KT 33/22 A3002 RMK A01 T03320217  RH  051%=      5-min Rain = 0
KTH1 031702Z 26006KT 33/22 A3002 RMK A01 T03310216  RH  051%=      5-min Rain = 0
KTH1 031703Z 26004KT 33/22 A3002 RMK A01 T03300216  RH  051%=      5-min Rain = 0
KTH1 031704Z 27003KT 33/21 A3002 RMK A01 T03310212  RH  049%=      5-min Rain = 0
KTH1 031705Z 26002KT 33/21 A3002 RMK A01 T03320214  RH  050%=      5-min Rain = 0
KTH1 031706Z 27002KT 33/22 A3002 RMK A01 T03340217  RH  050%=      5-min Rain = 0
KTH1 031707Z 27003KT 34/22 A3002 RMK A01 T03370216  RH  049%=      5-min Rain = 0
KTH1 031708Z 27003KT 34/21 A3002 RMK A01 T03370212  RH  048%=      5-min Rain = 0
KTH1 031709Z 27003KT 34/22 A3002 RMK A01 T03360217  RH  050%=      5-min Rain = 0
KTH1 031710Z 27002KT 34/22 A3002 RMK A01 T03360218  RH  050%=      5-min Rain = 0
KTH1 031711Z 27002KT 34/22 A3002 RMK A01 T03370215  RH  049%=      5-min Rain = 0
KTH1 031712Z 27004KT 34/22 A3002 RMK A01 T03380223  RH  051%=      5-min Rain = 0
KTH1 031713Z 26002KT 34/22 A3002 RMK A01 T03400219  RH  050%=      5-min Rain = 0
KTH1 031714Z 27002KT 34/22 A3002 RMK A01 T03400217  RH  049%=      5-min Rain = 0
KTH1 031715Z 24004KT 34/22 A3002 RMK A01 T03410215  RH  048%=      5-min Rain = 0
KTH1 031716Z 23005KT 34/22 A3002 RMK A01 T03390216  RH  049%=      5-min Rain = 0
KTH1 031717Z 24005KT 34/22 A3001 RMK A01 T03380220  RH  050%=      5-min Rain = 0
KTH1 031718Z 23005KT 34/21 A3001 RMK A01 T03380214  RH  048%=      5-min Rain = 0
KTH1 031719Z 22004KT 34/21 A3002 RMK A01 T03370212  RH  048%=      5-min Rain = 0
KTH1 031720Z 26004KT 34/22 A3002 RMK A01 T03370217  RH  049%=      5-min Rain = 0
KTH1 031721Z 26003KT 34/22 A3002 RMK A01 T03380215  RH  049%=      5-min Rain = 0
KTH1 031722Z 29001KT 34/22 A3002 RMK A01 T03390217  RH  049%=      5-min Rain = 0
KTH1 031723Z 30002KT 34/21 A3002 RMK A01 T03390212  RH  047%=      5-min Rain = 0
KTH1 031724Z 30003KT 34/22 A3002 RMK A01 T03390215  RH  048%=      5-min Rain = 0
KTH1 031725Z 28003KT 34/22 A3002 RMK A01 T03390219  RH  050%=      5-min Rain = 0
KTH1 031726Z 27002KT 34/22 A3002 RMK A01 T03390220  RH  050%=      5-min Rain = 0
KTH1 031727Z 27002KT 34/22 A3002 RMK A01 T03390215  RH  049%=      5-min Rain = 0
KTH1 031728Z 28002KT 34/22 A3002 RMK A01 T03380215  RH  049%=      5-min Rain = 0
KTH1 031729Z 31001KT 34/22 A3002 RMK A01 T03370219  RH  050%=      5-min Rain = 0
KTH1 031730Z 28002KT 34/22 A3002 RMK A01 T03390220  RH  050%=      5-min Rain = 0
KTH1 031731Z 26002KT 34/22 A3002 RMK A01 T03410215  RH  048%=      5-min Rain = 0
KTH1 031732Z 25002KT 34/22 A3002 RMK A01 T03420217  RH  048%=      5-min Rain = 0
KTH1 031733Z 28003KT 34/22 A3001 RMK A01 T03430217  RH  048%=      5-min Rain = 0
KTH1 031734Z 29003KT 34/22 A3001 RMK A01 T03430219  RH  049%=      5-min Rain = 0
KTH1 031735Z 29002KT 34/22 A3001 RMK A01 T03440220  RH  049%=      5-min Rain = 0
KTH1 031736Z 28002KT 35/22 A3001 RMK A01 T03450217  RH  047%=      5-min Rain = 0
KTH1 031737Z 29003KT 35/21 A3001 RMK A01 T03460213  RH  046%=      5-min Rain = 0
KTH1 031738Z 31002KT 35/22 A3001 RMK A01 T03460219  RH  048%=      5-min Rain = 0
KTH1 031739Z 30001KT 35/21 A3001 RMK A01 T03470212  RH  045%=      5-min Rain = 0
KTH1 031740Z 30002KT 35/22 A3001 RMK A01 T03470215  RH  046%=      5-min Rain = 0
KTH1 031741Z 23001KT 35/22 A3001 RMK A01 T03480218  RH  047%=      5-min Rain = 0
KTH1 031742Z 21003KT 35/22 A3001 RMK A01 T03480217  RH  047%=      5-min Rain = 0
KTH1 031743Z 22003KT 35/21 A3001 RMK A01 T03490213  RH  045%=      5-min Rain = 0
KTH1 031744Z 24005KT 35/21 A3001 RMK A01 T03480213  RH  045%=      5-min Rain = 0
KTH1 031745Z 25003KT 35/21 A3001 RMK A01 T03470213  RH  046%=      5-min Rain = 0
KTH1 031746Z 28001KT 35/21 A3001 RMK A01 T03460209  RH  045%=      5-min Rain = 0
KTH1 031747Z 19001KT 35/21 A3001 RMK A01 T03450213  RH  046%=      5-min Rain = 0
KTH1 031748Z 16001KT 35/21 A3001 RMK A01 T03470211  RH  045%=      5-min Rain = 0
KTH1 031749Z 15000KT 35/21 A3001 RMK A01 T03480207  RH  044%=      5-min Rain = 0
KTH1 031750Z 09000KT 35/20 A3001 RMK A01 T03480203  RH  043%=      5-min Rain = 0
KTH1 031751Z 06002KT 35/20 A3001 RMK A01 T03470204  RH  043%=      5-min Rain = 0
KTH1 031752Z 05002KT 35/20 A3001 RMK A01 T03470202  RH  043%=      5-min Rain = 0
KTH1 031753Z 29001KT 35/21 A3001 RMK A01 T03460209  RH  045%=      5-min Rain = 0
KTH1 031754Z 27002KT 35/21 A3001 RMK A01 T03470214  RH  046%=      5-min Rain = 0
KTH1 031755Z 26003KT 35/21 A3001 RMK A01 T03470211  RH  045%=      5-min Rain = 0
KTH1 031756Z 26002KT 35/21 A3001 RMK A01 T03470209  RH  045%=      5-min Rain = 0
KTH1 031757Z 25004KT 35/21 A3001 RMK A01 T03470212  RH  046%=      5-min Rain = 0
KTH1 031758Z 21004KT 35/21 A3001 RMK A01 T03470210  RH  045%=      5-min Rain = 0
KTH1 031759Z 26002KT 35/21 A3001 RMK A01 T03470208  RH  044%=      5-min Rain = 0
KTH1 031800Z 27002KT 35/22 A3001 RMK A01 T03470217  RH  047%=      5-min Rain = 0
KTH1 031801Z 26003KT 35/21 A3001 RMK A01 T03490214  RH  046%=      5-min Rain = 0
KTH1 031802Z 26002KT 35/21 A3001 RMK A01 T03490209  RH  044%=      5-min Rain = 0
KTH1 031803Z 28000KT 35/21 A3001 RMK A01 T03480208  RH  044%=      5-min Rain = 0
KTH1 031804Z 25001KT 35/21 A3001 RMK A01 T03490209  RH  044%=      5-min Rain = 0
KTH1 031805Z 22003KT 35/21 A3001 RMK A01 T03510209  RH  044%=      5-min Rain = 0
KTH1 031806Z 22004KT 35/21 A3001 RMK A01 T03530206  RH  043%=      5-min Rain = 0
KTH1 031807Z 21004KT 35/21 A3001 RMK A01 T03530205  RH  042%=      5-min Rain = 0
KTH1 031808Z 17002KT 35/20 A3001 RMK A01 T03520203  RH  042%=      5-min Rain = 0
KTH1 031809Z 22003KT 35/21 A3001 RMK A01 T03510210  RH  044%=      5-min Rain = 0
KTH1 031810Z 27002KT 35/20 A3001 RMK A01 T03510201  RH  042%=      5-min Rain = 0
KTH1 031811Z 33001KT 35/20 A3001 RMK A01 T03500202  RH  042%=      5-min Rain = 0
KTH1 031812Z 05002KT 35/21 A3001 RMK A01 T03510205  RH  043%=      5-min Rain = 0
KTH1 031813Z 15002KT 35/21 A3001 RMK A01 T03520206  RH  042%=      5-min Rain = 0
KTH1 031814Z 14004KT 35/21 A3001 RMK A01 T03530205  RH  042%=      5-min Rain = 0
KTH1 031815Z 14002KT 35/20 A3001 RMK A01 T03530200  RH  041%=      5-min Rain = 0
KTH1 031816Z 09003KT 35/20 A3001 RMK A01 T03510204  RH  042%=      5-min Rain = 0
KTH1 031817Z 07001KT 35/20 A3001 RMK A01 T03510204  RH  042%=      5-min Rain = 0
KTH1 031818Z 07002KT 35/21 A3001 RMK A01 T03520209  RH  043%=      5-min Rain = 0
KTH1 031819Z 08002KT 35/21 A3001 RMK A01 T03540206  RH  042%=      5-min Rain = 0
KTH1 031820Z 09002KT 36/21 A3001 RMK A01 T03550208  RH  042%=      5-min Rain = 0
KTH1 031821Z 10002KT 36/20 A3001 RMK A01 T03560203  RH  041%=      5-min Rain = 0
KTH1 031822Z 21004KT 36/21 A3001 RMK A01 T03550210  RH  043%=      5-min Rain = 0
KTH1 031823Z 22005KT 36/21 A30 RMK A01 T03550210  RH  043%=      5-min Rain = 0
KTH1 031824Z 14006G12KT 35/21 A30 RMK A01 T03530211  RH  044%=      5-min Rain = 0
KTH1 031825Z 18002G7KT 35/21 A3001 RMK A01 T03540212  RH  044%=      5-min Rain = 0
KTH1 031826Z 15003KT 36/21 A3001 RMK A01 T03550211  RH  043%=      5-min Rain = 0
KTH1 031827Z 17004KT 36/22 A3001 RMK A01 T03560218  RH  045%=      5-min Rain = 0
KTH1 031828Z 17007KT 36/21 A3001 RMK A01 T03590212  RH  043%=      5-min Rain = 0
KTH1 031829Z 15006KT 36/21 A3001 RMK A01 T03580214  RH  043%=      5-min Rain = 0
KTH1 031830Z 16003KT 36/21 A3001 RMK A01 T03570213  RH  043%=      5-min Rain = 0
KTH1 031831Z 14004KT 36/21 A3001 RMK A01 T03570210  RH  042%=      5-min Rain = 0
KTH1 031832Z 10003KT 36/21 A30 RMK A01 T03570208  RH  042%=      5-min Rain = 0
KTH1 031833Z 10002KT 36/21 A30 RMK A01 T03550205  RH  042%=      5-min Rain = 0
KTH1 031834Z 07002KT 35/21 A30 RMK A01 T03540207  RH  042%=      5-min Rain = 0
KTH1 031835Z 04003KT 36/21 A30 RMK A01 T03560206  RH  042%=      5-min Rain = 0
KTH1 031836Z 05004KT 36/21 A30 RMK A01 T03550209  RH  043%=      5-min Rain = 0
KTH1 031837Z 07002KT 35/21 A30 RMK A01 T03540207  RH  042%=      5-min Rain = 0
KTH1 031838Z 09001KT 35/21 A30 RMK A01 T03540206  RH  042%=      5-min Rain = 0
KTH1 031839Z 18001KT 35/20 A30 RMK A01 T03540203  RH  041%=      5-min Rain = 0
KTH1 031840Z 28000KT 35/20 A30 RMK A01 T03530202  RH  041%=      5-min Rain = 0
KTH1 031841Z 13001KT 35/21 A30 RMK A01 T03540208  RH  043%=      5-min Rain = 0
KTH1 031842Z 12002KT 36/21 A30 RMK A01 T03550211  RH  043%=      5-min Rain = 0
KTH1 031843Z 13006KT 36/21 A30 RMK A01 T03580209  RH  042%=      5-min Rain = 0
KTH1 031844Z 14005KT 36/21 A30 RMK A01 T03590211  RH  042%=      5-min Rain = 0
KTH1 031845Z 14006KT 36/21 A30 RMK A01 T03600208  RH  041%=      5-min Rain = 0
KTH1 031846Z 15005KT 36/21 A30 RMK A01 T03610205  RH  040%=      5-min Rain = 0
KTH1 031847Z 14004KT 36/21 A30 RMK A01 T03610207  RH  041%=      5-min Rain = 0
KTH1 031848Z 12003KT 36/21 A30 RMK A01 T03620208  RH  041%=      5-min Rain = 0
KTH1 031849Z 10003KT 36/20 A30 RMK A01 T03620201  RH  039%=      5-min Rain = 0
KTH1 031850Z 13005KT 36/21 A30 RMK A01 T03600205  RH  040%=      5-min Rain = 0
KTH1 031851Z 10002KT 36/21 A30 RMK A01 T03610205  RH  040%=      5-min Rain = 0
KTH1 031852Z 12003KT 36/20 A30 RMK A01 T03610199  RH  039%=      5-min Rain = 0
KTH1 031853Z 12001KT 36/21 A2999 RMK A01 T03620205  RH  040%=      5-min Rain = 0
KTH1 031854Z 15005KT 36/21 A2999 RMK A01 T03630206  RH  040%=      5-min Rain = 0
KTH1 031855Z 16003KT 36/20 A30 RMK A01 T03640199  RH  038%=      5-min Rain = 0
KTH1 031856Z 15000KT 36/20 A2999 RMK A01 T03630200  RH  039%=      5-min Rain = 0
KTH1 031857Z 36001KT 36/20 A2999 RMK A01 T03620198  RH  038%=      5-min Rain = 0
KTH1 031858Z 19001KT 36/20 A2999 RMK A01 T03620201  RH  039%=      5-min Rain = 0
KTH1 031859Z 13005KT 36/21 A2999 RMK A01 T03620205  RH  040%=      5-min Rain = 0
KTH1 031900Z 13006KT 36/20 A2999 RMK A01 T03620204  RH  040%=      5-min Rain = 0
KTH1 031901Z 11005KT 36/21 A2999 RMK A01 T03620205  RH  040%=      5-min Rain = 0
KTH1 031902Z 09005KT 36/21 A2999 RMK A01 T03620206  RH  040%=      5-min Rain = 0
KTH1 031903Z 10005KT 36/21 A2999 RMK A01 T03630205  RH  040%=      5-min Rain = 0
KTH1 031904Z 08004KT 36/20 A2999 RMK A01 T03630204  RH  039%=      5-min Rain = 0
KTH1 031905Z 07004KT 36/20 A2999 RMK A01 T03600200  RH  039%=      5-min Rain = 0
KTH1 031906Z 36002KT 36/21 A2999 RMK A01 T03570205  RH  041%=      5-min Rain = 0
KTH1 031907Z 17002KT 36/21 A2999 RMK A01 T03560205  RH  041%=      5-min Rain = 0
KTH1 031908Z 20002KT 36/20 A2999 RMK A01 T03580203  RH  041%=      5-min Rain = 0
KTH1 031909Z 22002KT 36/20 A2999 RMK A01 T03580203  RH  040%=      5-min Rain = 0
KTH1 031910Z 30001KT 36/21 A2999 RMK A01 T03580208  RH  042%=      5-min Rain = 0
KTH1 031911Z 29003KT 36/21 A2999 RMK A01 T03590205  RH  041%=      5-min Rain = 0
KTH1 031912Z 32002KT 36/21 A2999 RMK A01 T03590211  RH  042%=      5-min Rain = 0
KTH1 031913Z 01001KT 36/21 A2999 RMK A01 T03610212  RH  042%=      5-min Rain = 0
KTH1 031914Z 12005KT 36/20 A2999 RMK A01 T03620201  RH  039%=      5-min Rain = 0
KTH1 031915Z 15003KT 36/20 A2999 RMK A01 T03620196  RH  038%=      5-min Rain = 0
KTH1 031916Z 13004KT 36/20 A2999 RMK A01 T03620202  RH  039%=      5-min Rain = 0
KTH1 031917Z 14009KT 36/20 A2999 RMK A01 T03640197  RH  038%=      5-min Rain = 0
KTH1 031918Z 13011KT 36/19 A2999 RMK A01 T03640194  RH  037%=      5-min Rain = 0
KTH1 031919Z 12008KT 36/19 A2999 RMK A01 T03630194  RH  037%=      5-min Rain = 0
KTH1 031920Z 13006KT 36/19 A2999 RMK A01 T03630191  RH  037%=      5-min Rain = 0
KTH1 031921Z 12007KT 36/19 A2999 RMK A01 T03630191  RH  037%=      5-min Rain = 0
KTH1 031922Z 12006KT 36/19 A2999 RMK A01 T03630189  RH  036%=      5-min Rain = 0
KTH1 031923Z 13008KT 36/19 A2999 RMK A01 T03610191  RH  037%=      5-min Rain = 0
KTH1 031924Z 16005KT 36/20 A2999 RMK A01 T03610197  RH  038%=      5-min Rain = 0
KTH1 031925Z 17003KT 36/20 A2999 RMK A01 T03630198  RH  038%=      5-min Rain = 0
KTH1 031926Z 16005KT 37/20 A2999 RMK A01 T03660198  RH  037%=      5-min Rain = 0
KTH1 031927Z 16004KT 37/20 A2999 RMK A01 T03670197  RH  037%=      5-min Rain = 0
KTH1 031928Z 12006KT 37/20 A2999 RMK A01 T03670201  RH  038%=      5-min Rain = 0
KTH1 031929Z 11008KT 37/20 A2999 RMK A01 T03680196  RH  037%=      5-min Rain = 0
KTH1 031930Z 11007KT 37/19 A2999 RMK A01 T03660193  RH  036%=      5-min Rain = 0
KTH1 031931Z 10008KT 37/20 A2999 RMK A01 T03650198  RH  038%=      5-min Rain = 0
KTH1 031932Z 09007KT 37/19 A2999 RMK A01 T03650193  RH  037%=      5-min Rain = 0
KTH1 031933Z 09008KT 36/19 A2999 RMK A01 T03640193  RH  037%=      5-min Rain = 0
KTH1 031934Z 09005KT 36/19 A2999 RMK A01 T03630193  RH  037%=      5-min Rain = 0
KTH1 031935Z 10005KT 36/19 A2999 RMK A01 T03620192  RH  037%=      5-min Rain = 0
KTH1 031936Z 13005KT 36/19 A2999 RMK A01 T03620191  RH  037%=      5-min Rain = 0
KTH1 031937Z 15003KT 36/19 A2999 RMK A01 T03620189  RH  036%=      5-min Rain = 0
KTH1 031938Z 18002KT 36/20 A2999 RMK A01 T03620195  RH  038%=      5-min Rain = 0
KTH1 031939Z 12005KT 37/20 A2999 RMK A01 T03650199  RH  038%=      5-min Rain = 0
KTH1 031940Z 11007KT 37/19 A2999 RMK A01 T03670193  RH  036%=      5-min Rain = 0
KTH1 031941Z 10007KT 37/19 A2999 RMK A01 T03660188  RH  035%=      5-min Rain = 0
KTH1 031942Z 09006KT 37/19 A2999 RMK A01 T03650193  RH  037%=      5-min Rain = 0
KTH1 031943Z 09003KT 37/19 A2999 RMK A01 T03660185  RH  035%=      5-min Rain = 0
KTH1 031944Z 15005KT 37/19 A2999 RMK A01 T03650187  RH  035%=      5-min Rain = 0
KTH1 031945Z 14006KT 37/19 A2999 RMK A01 T03660188  RH  035%=      5-min Rain = 0
KTH1 031946Z 17004KT 37/18 A2999 RMK A01 T03680184  RH  034%=      5-min Rain = 0
KTH1 031947Z 19004KT 37/18 A2999 RMK A01 T03690179  RH  033%=      5-min Rain = 0
KTH1 031948Z 16004KT 37/18 A2998 RMK A01 T03700181  RH  033%=      5-min Rain = 0
KTH1 031949Z 16007KT 37/18 A2998 RMK A01 T03700179  RH  033%=      5-min Rain = 0
KTH1 031950Z 15004KT 37/18 A2998 RMK A01 T03690184  RH  034%=      5-min Rain = 0
KTH1 031951Z 15007KT 37/19 A2998 RMK A01 T03700188  RH  035%=      5-min Rain = 0
KTH1 031952Z 15008KT 37/18 A2998 RMK A01 T03720180  RH  032%=      5-min Rain = 0
KTH1 031953Z 16008KT 37/18 A2998 RMK A01 T03710177  RH  032%=      5-min Rain = 0
KTH1 031954Z 14006G11KT 37/18 A2998 RMK A01 T03700179  RH  033%=      5-min Rain = 0
KTH1 031955Z 15009KT 37/18 A2998 RMK A01 T03700179  RH  033%=      5-min Rain = 0
KTH1 031956Z 17007KT 37/18 A2998 RMK A01 T03710182  RH  033%=      5-min Rain = 0
KTH1 031957Z 16006KT 37/18 A2998 RMK A01 T03710182  RH  033%=      5-min Rain = 0
KTH1 031958Z 15008KT 37/18 A2998 RMK A01 T03720183  RH  033%=      5-min Rain = 0
KTH1 031959Z 15010KT 37/18 A2998 RMK A01 T03720179  RH  032%=      5-min Rain = 0
KTH1 032000Z 15009KT 37/18 A2998 RMK A01 T03700177  RH  032%=      5-min Rain = 0
KTH1 032001Z 14008KT 37/18 A2998 RMK A01 T03690176  RH  032%=      5-min Rain = 0
KTH1 032002Z 14005KT 37/18 A2998 RMK A01 T03670176  RH  032%=      5-min Rain = 0
KTH1 032003Z 14003KT 37/18 A2998 RMK A01 T03670175  RH  032%=      5-min Rain = 0
KTH1 032004Z 21002G7KT 37/18 A2998 RMK A01 T03670175  RH  032%=      5-min Rain = 0
KTH1 032005Z 17003KT 37/18 A2998 RMK A01 T03690183  RH  034%=      5-min Rain = 0
KTH1 032006Z 16004KT 37/18 A2998 RMK A01 T03710179  RH  033%=      5-min Rain = 0
KTH1 032007Z 17005KT 37/18 A2998 RMK A01 T03710176  RH  032%=      5-min Rain = 0
KTH1 032008Z 16004KT 37/18 A2998 RMK A01 T03700182  RH  033%=      5-min Rain = 0
KTH1 032009Z 11004KT 37/18 A2998 RMK A01 T03700184  RH  034%=      5-min Rain = 0
KTH1 032010Z 11005KT 37/18 A2998 RMK A01 T03710179  RH  032%=      5-min Rain = 0
KTH1 032011Z 10008KT 37/18 A2998 RMK A01 T03710180  RH  033%=      5-min Rain = 0
KTH1 032012Z 09007KT 37/18 A2998 RMK A01 T03690175  RH  032%=      5-min Rain = 0
KTH1 032013Z 10005KT 37/17 A2998 RMK A01 T03680171  RH  031%=      5-min Rain = 0
KTH1 032014Z 11006KT 37/17 A2998 RMK A01 T03670174  RH  032%=      5-min Rain = 0
KTH1 032015Z 10006KT 37/17 A2998 RMK A01 T03670174  RH  032%=      5-min Rain = 0
KTH1 032016Z 10007KT 37/17 A2998 RMK A01 T03670170  RH  031%=      5-min Rain = 0
KTH1 032017Z 12005KT 37/18 A2998 RMK A01 T03680176  RH  032%=      5-min Rain = 0
KTH1 032018Z 14005KT 37/18 A2998 RMK A01 T03680180  RH  033%=      5-min Rain = 0
KTH1 032019Z 15008KT 37/18 A2998 RMK A01 T03720179  RH  032%=      5-min Rain = 0
KTH1 032020Z 13004KT 37/17 A2998 RMK A01 T03720167  RH  030%=      5-min Rain = 0
KTH1 032021Z 14003KT 37/17 A2998 RMK A01 T03690167  RH  030%=      5-min Rain = 0
KTH1 032022Z 20004KT 37/18 A2998 RMK A01 T03680175  RH  032%=      5-min Rain = 0
KTH1 032023Z 18003KT 37/18 A2997 RMK A01 T03690183  RH  034%=      5-min Rain = 0
KTH1 032024Z 14003KT 37/18 A2997 RMK A01 T03710178  RH  032%=      5-min Rain = 0
KTH1 032025Z 14003KT 37/18 A2997 RMK A01 T03720177  RH  032%=      5-min Rain = 0
KTH1 032026Z 14004G9KT 37/18 A2998 RMK A01 T03710179  RH  032%=      5-min Rain = 0
KTH1 032027Z 14008KT 37/17 A2997 RMK A01 T03710169  RH  030%=      5-min Rain = 0
KTH1 032028Z 12005KT 37/17 A2998 RMK A01 T03700171  RH  031%=      5-min Rain = 0
KTH1 032029Z 11005KT 37/17 A2998 RMK A01 T03700171  RH  031%=      5-min Rain = 0
KTH1 032030Z 13007KT 37/17 A2997 RMK A01 T03700171  RH  031%=      5-min Rain = 0
KTH1 032031Z 14008KT 37/17 A2997 RMK A01 T03700173  RH  032%=      5-min Rain = 0
KTH1 032032Z 13008KT 37/17 A2997 RMK A01 T03710168  RH  030%=      5-min Rain = 0
KTH1 032033Z 13006KT 37/17 A2997 RMK A01 T03700167  RH  030%=      5-min Rain = 0
KTH1 032034Z 12005KT 37/17 A2997 RMK A01 T03670167  RH  031%=      5-min Rain = 0
KTH1 032035Z 14004KT 37/17 A2997 RMK A01 T03660171  RH  032%=      5-min Rain = 0
KTH1 032036Z 15007KT 37/18 A2997 RMK A01 T03670178  RH  033%=      5-min Rain = 0
KTH1 032037Z 16006KT 37/18 A2997 RMK A01 T03700184  RH  034%=      5-min Rain = 0
KTH1 032038Z 17003KT 37/18 A2997 RMK A01 T03720177  RH  032%=      5-min Rain = 0
KTH1 032039Z 16004KT 37/18 A2997 RMK A01 T03720177  RH  032%=      5-min Rain = 0
KTH1 032040Z 15005KT 37/17 A2997 RMK A01 T03710171  RH  031%=      5-min Rain = 0
KTH1 032041Z 13004KT 37/17 A2997 RMK A01 T03700174  RH  032%=      5-min Rain = 0
KTH1 032042Z 14005KT 37/17 A2997 RMK A01 T03690174  RH  032%=      5-min Rain = 0
KTH1 032043Z 12005KT 37/18 A2997 RMK A01 T03690176  RH  032%=      5-min Rain = 0
KTH1 032044Z 10005KT 37/18 A2997 RMK A01 T03690178  RH  033%=      5-min Rain = 0
KTH1 032045Z 10007KT 37/17 A2997 RMK A01 T03690172  RH  031%=      5-min Rain = 0
KTH1 032046Z 11006KT 37/17 A2997 RMK A01 T03670170  RH  031%=      5-min Rain = 0
KTH1 032047Z 11003KT 37/18 A2997 RMK A01 T03670177  RH  033%=      5-min Rain = 0
KTH1 032048Z 13007KT 37/18 A2997 RMK A01 T03700181  RH  033%=      5-min Rain = 0
KTH1 032049Z 15007KT 37/18 A2997 RMK A01 T03710175  RH  032%=      5-min Rain = 0
KTH1 032050Z 14008KT 37/17 A2997 RMK A01 T03720174  RH  031%=      5-min Rain = 0
KTH1 032051Z 13007KT 37/17 A2997 RMK A01 T03710174  RH  031%=      5-min Rain = 0
KTH1 032052Z 16004KT 37/18 A2997 RMK A01 T03700180  RH  033%=      5-min Rain = 0
KTH1 032053Z 16004KT 37/17 A2997 RMK A01 T03710173  RH  031%=      5-min Rain = 0
KTH1 032054Z 16006KT 37/17 A2997 RMK A01 T03710171  RH  031%=      5-min Rain = 0
KTH1 032055Z 16004KT 37/18 A2997 RMK A01 T03710183  RH  033%=      5-min Rain = 0
KTH1 032056Z 14007KT 37/17 A2997 RMK A01 T03720174  RH  031%=      5-min Rain = 0
KTH1 032057Z 17004KT 37/18 A2997 RMK A01 T03710175  RH  032%=      5-min Rain = 0
KTH1 032058Z 14004KT 37/18 A2997 RMK A01 T03700178  RH  032%=      5-min Rain = 0
KTH1 032059Z 11006KT 37/18 A2997 RMK A01 T03710178  RH  032%=      5-min Rain = 0
KTH1 032100Z 12005KT 37/18 A2997 RMK A01 T03720178  RH  032%=      5-min Rain = 0
KTH1 032101Z 15005KT 37/18 A2997 RMK A01 T03730178  RH  032%=      5-min Rain = 0
KTH1 032102Z 11005KT 37/18 A2997 RMK A01 T03720177  RH  032%=      5-min Rain = 0
KTH1 032103Z 10006KT 37/18 A2997 RMK A01 T03710175  RH  032%=      5-min Rain = 0
KTH1 032104Z 09004KT 37/17 A2997 RMK A01 T03700173  RH  031%=      5-min Rain = 0
KTH1 032105Z 09004KT 37/18 A2997 RMK A01 T03690175  RH  032%=      5-min Rain = 0
KTH1 032106Z 11004KT 37/18 A2996 RMK A01 T03690181  RH  033%=      5-min Rain = 0
KTH1 032107Z 13008G13KT 37/18 A2996 RMK A01 T03710182  RH  033%=      5-min Rain = 0
KTH1 032108Z 13008KT 37/18 A2996 RMK A01 T03730178  RH  032%=      5-min Rain = 0
KTH1 032109Z 15008KT 37/18 A2996 RMK A01 T03720175  RH  032%=      5-min Rain = 0
KTH1 032110Z 16008KT 37/17 A2996 RMK A01 T03710171  RH  031%=      5-min Rain = 0
KTH1 032111Z 15006KT 37/17 A2996 RMK A01 T03710172  RH  031%=      5-min Rain = 0
KTH1 032112Z 16005KT 37/17 A2996 RMK A01 T03700172  RH  031%=      5-min Rain = 0
KTH1 032113Z 13005KT 37/17 A2996 RMK A01 T03710170  RH  031%=      5-min Rain = 0
KTH1 032114Z 16005KT 37/18 A2996 RMK A01 T03710175  RH  032%=      5-min Rain = 0
KTH1 032115Z 11005KT 37/17 A2996 RMK A01 T03720170  RH  031%=      5-min Rain = 0
KTH1 032116Z 11005KT 37/17 A2996 RMK A01 T03710166  RH  030%=      5-min Rain = 0
KTH1 032117Z 11004KT 37/16 A2996 RMK A01 T03680164  RH  030%=      5-min Rain = 0
KTH1 032118Z 14002KT 37/17 A2996 RMK A01 T03660168  RH  031%=      5-min Rain = 0
KTH1 032119Z 12001KT 37/16 A2996 RMK A01 T03670164  RH  030%=      5-min Rain = 0
KTH1 032120Z 16003KT 37/17 A2996 RMK A01 T03680169  RH  031%=      5-min Rain = 0
KTH1 032121Z 15006KT 37/17 A2996 RMK A01 T03680173  RH  032%=      5-min Rain = 0
KTH1 032122Z 15006KT 37/17 A2996 RMK A01 T03670172  RH  032%=      5-min Rain = 0
KTH1 032123Z 16003KT 37/17 A2996 RMK A01 T03660174  RH  032%=      5-min Rain = 0
KTH1 032124Z 11002KT 36/17 A2996 RMK A01 T03640169  RH  032%=      5-min Rain = 0
KTH1 032125Z 09005KT 36/17 A2996 RMK A01 T03640174  RH  033%=      5-min Rain = 0
KTH1 032126Z 09004KT 36/17 A2996 RMK A01 T03640171  RH  032%=      5-min Rain = 0
KTH1 032127Z 12004KT 36/17 A2996 RMK A01 T03640169  RH  032%=      5-min Rain = 0
KTH1 032128Z 13003KT 36/17 A2996 RMK A01 T03640169  RH  032%=      5-min Rain = 0
KTH1 032129Z 13006G11KT 36/18 A2996 RMK A01 T03640175  RH  033%=      5-min Rain = 0
KTH1 032130Z 13010KT 37/16 A2996 RMK A01 T03660163  RH  030%=      5-min Rain = 0
KTH1 032131Z 13009KT 37/16 A2995 RMK A01 T03670161  RH  030%=      5-min Rain = 0
KTH1 032132Z 13007KT 37/16 A2995 RMK A01 T03670162  RH  030%=      5-min Rain = 0
KTH1 032133Z 13005KT 37/17 A2995 RMK A01 T03680169  RH  031%=      5-min Rain = 0
KTH1 032134Z 15009KT 37/17 A2995 RMK A01 T03690172  RH  031%=      5-min Rain = 0
KTH1 032135Z 15006KT 37/17 A2995 RMK A01 T03700172  RH  031%=      5-min Rain = 0
KTH1 032136Z 14008KT 37/17 A2995 RMK A01 T03700174  RH  032%=      5-min Rain = 0
KTH1 032137Z 14008KT 37/17 A2996 RMK A01 T03710171  RH  031%=      5-min Rain = 0
KTH1 032138Z 13006KT 37/17 A2996 RMK A01 T03700174  RH  032%=      5-min Rain = 0
KTH1 032139Z 13006KT 37/17 A2996 RMK A01 T03690170  RH  031%=      5-min Rain = 0
KTH1 032140Z 10005KT 37/18 A2996 RMK A01 T03690176  RH  032%=      5-min Rain = 0
KTH1 032141Z 11005KT 37/18 A2995 RMK A01 T03690175  RH  032%=      5-min Rain = 0
KTH1 032142Z 12005KT 37/18 A2995 RMK A01 T03700177  RH  032%=      5-min Rain = 0
KTH1 032143Z 13006KT 37/18 A2995 RMK A01 T03710177  RH  032%=      5-min Rain = 0
KTH1 032144Z 15007KT 37/17 A2995 RMK A01 T03710174  RH  031%=      5-min Rain = 0
KTH1 032145Z 15009KT 37/17 A2995 RMK A01 T03710168  RH  030%=      5-min Rain = 0
KTH1 032146Z 14007KT 37/17 A2995 RMK A01 T03700167  RH  030%=      5-min Rain = 0
KTH1 032147Z 15007KT 37/17 A2995 RMK A01 T03690166  RH  030%=      5-min Rain = 0
KTH1 032148Z 15006KT 37/17 A2995 RMK A01 T03700169  RH  031%=      5-min Rain = 0
KTH1 032149Z 16006KT 37/17 A2995 RMK A01 T03700167  RH  030%=      5-min Rain = 0
KTH1 032150Z 16005KT 37/17 A2995 RMK A01 T03710167  RH  030%=      5-min Rain = 0
KTH1 032151Z 17005KT 37/17 A2995 RMK A01 T03710172  RH  031%=      5-min Rain = 0
KTH1 032152Z 13006KT 37/17 A2995 RMK A01 T03710171  RH  031%=      5-min Rain = 0
KTH1 032153Z 10007KT 37/16 A2995 RMK A01 T03720157  RH  028%=      5-min Rain = 0
KTH1 032154Z 11007KT 37/16 A2995 RMK A01 T03710156  RH  028%=      5-min Rain = 0
KTH1 032155Z 11005KT 37/16 A2995 RMK A01 T03710157  RH  028%=      5-min Rain = 0
KTH1 032156Z 13006KT 37/16 A2995 RMK A01 T03710161  RH  029%=      5-min Rain = 0
KTH1 032157Z 13009KT 37/17 A2995 RMK A01 T03710165  RH  030%=      5-min Rain = 0
KTH1 032158Z 14006KT 37/17 A2995 RMK A01 T03710169  RH  030%=      5-min Rain = 0
KTH1 032159Z 13008KT 37/17 A2995 RMK A01 T03710167  RH  030%=      5-min Rain = 0
KTH1 032200Z 11008KT 37/16 A2995 RMK A01 T03710163  RH  029%=      5-min Rain = 0
KTH1 032201Z 10006KT 37/16 A2995 RMK A01 T03690162  RH  029%=      5-min Rain = 0
KTH1 032202Z 09004KT 37/16 A2995 RMK A01 T03680161  RH  029%=      5-min Rain = 0
KTH1 032203Z 09003KT 37/16 A2994 RMK A01 T03680161  RH  029%=      5-min Rain = 0
KTH1 032204Z 10005KT 37/16 A2994 RMK A01 T03680159  RH  029%=      5-min Rain = 0
KTH1 032205Z 10006KT 37/16 A2994 RMK A01 T03680161  RH  030%=      5-min Rain = 0
KTH1 032206Z 12005KT 37/16 A2994 RMK A01 T03680161  RH  029%=      5-min Rain = 0
KTH1 032207Z 13003KT 37/16 A2994 RMK A01 T03700159  RH  029%=      5-min Rain = 0
KTH1 032208Z 13004KT 37/16 A2994 RMK A01 T03700158  RH  029%=      5-min Rain = 0
KTH1 032209Z 13006KT 37/17 A2994 RMK A01 T03710165  RH  030%=      5-min Rain = 0
KTH1 032210Z 10008KT 37/17 A2994 RMK A01 T03720166  RH  030%=      5-min Rain = 0
KTH1 032211Z 10007KT 37/16 A2994 RMK A01 T03730157  RH  028%=      5-min Rain = 0
KTH1 032212Z 09006KT 37/16 A2994 RMK A01 T03710159  RH  029%=      5-min Rain = 0
KTH1 032213Z 12006KT 37/17 A2994 RMK A01 T03710165  RH  030%=      5-min Rain = 0
KTH1 032214Z 15007KT 37/16 A2994 RMK A01 T03720164  RH  029%=      5-min Rain = 0
KTH1 032215Z 16006KT 37/17 A2994 RMK A01 T03710165  RH  030%=      5-min Rain = 0
KTH1 032216Z 14007KT 37/16 A2994 RMK A01 T03710164  RH  029%=      5-min Rain = 0
KTH1 032217Z 14006KT 37/16 A2994 RMK A01 T03690163  RH  030%=      5-min Rain = 0
KTH1 032218Z 14007KT 37/17 A2994 RMK A01 T03680166  RH  030%=      5-min Rain = 0
KTH1 032219Z 14007KT 37/17 A2994 RMK A01 T03680165  RH  030%=      5-min Rain = 0
KTH1 032220Z 17008KT 37/16 A2994 RMK A01 T03680164  RH  030%=      5-min Rain = 0
KTH1 032221Z 16006KT 37/16 A2994 RMK A01 T03690155  RH  028%=      5-min Rain = 0
KTH1 032222Z 15005KT 37/16 A2994 RMK A01 T03690155  RH  028%=      5-min Rain = 0
KTH1 032223Z 15004KT 37/16 A2994 RMK A01 T03700163  RH  029%=      5-min Rain = 0
KTH1 032224Z 17003KT 37/16 A2994 RMK A01 T03720162  RH  029%=      5-min Rain = 0
KTH1 032225Z 14006KT 37/17 A2994 RMK A01 T03740165  RH  029%=      5-min Rain = 0
KTH1 032226Z 15006KT 38/17 A2994 RMK A01 T03760166  RH  029%=      5-min Rain = 0
KTH1 032227Z 13006KT 38/17 A2994 RMK A01 T03770166  RH  029%=      5-min Rain = 0
KTH1 032228Z 12006KT 38/17 A2994 RMK A01 T03760167  RH  029%=      5-min Rain = 0
KTH1 032229Z 11005KT 37/17 A2994 RMK A01 T03720168  RH  030%=      5-min Rain = 0
KTH1 032230Z 12005KT 37/17 A2994 RMK A01 T03700165  RH  030%=      5-min Rain = 0
KTH1 032231Z 12004KT 37/17 A2994 RMK A01 T03680167  RH  031%=      5-min Rain = 0
KTH1 032232Z 16006KT 37/17 A2994 RMK A01 T03670167  RH  031%=      5-min Rain = 0
KTH1 032233Z 17004KT 37/17 A2994 RMK A01 T03670168  RH  031%=      5-min Rain = 0
KTH1 032234Z 13004KT 37/17 A2994 RMK A01 T03670174  RH  032%=      5-min Rain = 0
KTH1 032235Z 13007KT 37/18 A2994 RMK A01 T03690176  RH  032%=      5-min Rain = 0
KTH1 032236Z 14007KT 37/18 A2994 RMK A01 T03700178  RH  032%=      5-min Rain = 0
KTH1 032237Z 12007KT 37/18 A2993 RMK A01 T03700179  RH  033%=      5-min Rain = 0
KTH1 032238Z 14006KT 37/18 A2993 RMK A01 T03700179  RH  033%=      5-min Rain = 0
KTH1 032239Z 14007KT 37/18 A2993 RMK A01 T03700183  RH  033%=      5-min Rain = 0
KTH1 032240Z 14009KT 37/18 A2993 RMK A01 T03710180  RH  033%=      5-min Rain = 0
KTH1 032241Z 14006KT 37/18 A2993 RMK A01 T03690178  RH  033%=      5-min Rain = 0
KTH1 032242Z 14006KT 37/18 A2993 RMK A01 T03680181  RH  033%=      5-min Rain = 0
KTH1 032243Z 15004KT 37/18 A2993 RMK A01 T03680179  RH  033%=      5-min Rain = 0
KTH1 032244Z 16004KT 37/18 A2993 RMK A01 T03680184  RH  034%=      5-min Rain = 0
KTH1 032245Z 15005KT 37/18 A2993 RMK A01 T03690180  RH  033%=      5-min Rain = 0
KTH1 032246Z 16003KT 37/18 A2993 RMK A01 T03700176  RH  032%=      5-min Rain = 0
KTH1 032247Z 15003KT 37/18 A2993 RMK A01 T03690175  RH  032%=      5-min Rain = 0
KTH1 032248Z 14003KT 37/18 A2993 RMK A01 T03700177  RH  032%=      5-min Rain = 0
KTH1 032249Z 14004KT 37/18 A2993 RMK A01 T03700180  RH  033%=      5-min Rain = 0
KTH1 032250Z 13007KT 37/18 A2993 RMK A01 T03710182  RH  033%=      5-min Rain = 0
KTH1 032251Z 13007KT 37/18 A2993 RMK A01 T03710177  RH  032%=      5-min Rain = 0
KTH1 032252Z 13006KT 37/18 A2993 RMK A01 T03700178  RH  032%=      5-min Rain = 0
KTH1 032253Z 13004KT 37/18 A2993 RMK A01 T03680177  RH  033%=      5-min Rain = 0
KTH1 032254Z 12005KT 37/18 A2993 RMK A01 T03680176  RH  032%=      5-min Rain = 0
KTH1 032255Z 11005KT 37/18 A2993 RMK A01 T03670181  RH  034%=      5-min Rain = 0
KTH1 032256Z 12005KT 37/18 A2993 RMK A01 T03670181  RH  034%=      5-min Rain = 0
KTH1 032257Z 16005KT 37/18 A2993 RMK A01 T03670183  RH  034%=      5-min Rain = 0
KTH1 032258Z 17002KT 37/18 A2993 RMK A01 T03670181  RH  034%=      5-min Rain = 0
KTH1 032259Z 12002KT 37/18 A2993 RMK A01 T03670181  RH  034%=      5-min Rain = 0
KTH1 032300Z 12005KT 37/18 A2993 RMK A01 T03670179  RH  033%=      5-min Rain = 0
KTH1 032301Z 13005KT 37/18 A2993 RMK A01 T03670180  RH  033%=      5-min Rain = 0
KTH1 032302Z 10003KT 37/18 A2993 RMK A01 T03670175  RH  032%=      5-min Rain = 0
KTH1 032303Z 08006KT 37/17 A2993 RMK A01 T03670173  RH  032%=      5-min Rain = 0
KTH1 032304Z 09005KT 37/17 A2993 RMK A01 T03670172  RH  032%=      5-min Rain = 0
KTH1 032305Z 08006KT 37/17 A2993 RMK A01 T03660172  RH  032%=      5-min Rain = 0
KTH1 032306Z 09002KT 37/17 A2993 RMK A01 T03650172  RH  032%=      5-min Rain = 0
KTH1 032307Z 13006KT 37/18 A2993 RMK A01 T03650180  RH  034%=      5-min Rain = 0
KTH1 032308Z 15008KT 37/18 A2993 RMK A01 T03660177  RH  033%=      5-min Rain = 0
KTH1 032309Z 14007KT 37/18 A2993 RMK A01 T03660175  RH  033%=      5-min Rain = 0
KTH1 032310Z 13007KT 37/18 A2993 RMK A01 T03650179  RH  033%=      5-min Rain = 0
KTH1 032311Z 12006KT 37/18 A2993 RMK A01 T03650180  RH  034%=      5-min Rain = 0
KTH1 032312Z 10006KT 37/18 A2993 RMK A01 T03660178  RH  033%=      5-min Rain = 0
KTH1 032313Z 12007KT 37/18 A2993 RMK A01 T03660178  RH  033%=      5-min Rain = 0
KTH1 032314Z 12007KT 37/18 A2993 RMK A01 T03650176  RH  033%=      5-min Rain = 0
KTH1 032315Z 11005KT 36/18 A2993 RMK A01 T03640177  RH  033%=      5-min Rain = 0
KTH1 032316Z 11006KT 36/18 A2993 RMK A01 T03640177  RH  033%=      5-min Rain = 0
KTH1 032317Z 10005KT 36/18 A2993 RMK A01 T03640175  RH  033%=      5-min Rain = 0
KTH1 032318Z 13005KT 36/18 A2993 RMK A01 T03640178  RH  034%=      5-min Rain = 0
KTH1 032319Z 12008KT 36/17 A2992 RMK A01 T03640174  RH  033%=      5-min Rain = 0
KTH1 032320Z 11009KT 36/17 A2992 RMK A01 T03630173  RH  033%=      5-min Rain = 0
KTH1 032321Z 12006KT 36/18 A2993 RMK A01 T03620175  RH  033%=      5-min Rain = 0
KTH1 032322Z 12007KT 36/18 A2993 RMK A01 T03610176  RH  034%=      5-min Rain = 0
KTH1 032323Z 11007KT 36/17 A2993 RMK A01 T03610173  RH  033%=      5-min Rain = 0
KTH1 032324Z 09004KT 36/18 A2992 RMK A01 T03610178  RH  034%=      5-min Rain = 0
KTH1 032325Z 09007KT 36/18 A2992 RMK A01 T03600180  RH  035%=      5-min Rain = 0
KTH1 032326Z 09007KT 36/18 A2992 RMK A01 T03610177  RH  034%=      5-min Rain = 0
KTH1 032327Z 09008KT 36/18 A2992 RMK A01 T03610178  RH  034%=      5-min Rain = 0
KTH1 032328Z 09009KT 36/18 A2992 RMK A01 T03610175  RH  033%=      5-min Rain = 0
KTH1 032329Z 09008KT 36/18 A2992 RMK A01 T03600176  RH  034%=      5-min Rain = 0
KTH1 032330Z 09009KT 36/18 A2992 RMK A01 T03600179  RH  034%=      5-min Rain = 0
KTH1 032331Z 10007KT 36/18 A2992 RMK A01 T03600175  RH  034%=      5-min Rain = 0
KTH1 032332Z 10006KT 36/17 A2992 RMK A01 T03590174  RH  034%=      5-min Rain = 0
KTH1 032333Z 10008KT 36/18 A2992 RMK A01 T03600176  RH  034%=      5-min Rain = 0
KTH1 032334Z 10007KT 36/18 A2992 RMK A01 T03590176  RH  034%=      5-min Rain = 0
KTH1 032335Z 10006KT 36/18 A2992 RMK A01 T03590178  RH  034%=      5-min Rain = 0
KTH1 032336Z 10006KT 36/18 A2992 RMK A01 T03590179  RH  035%=      5-min Rain = 0
KTH1 032337Z 09008KT 36/18 A2992 RMK A01 T03590177  RH  034%=      5-min Rain = 0
KTH1 032338Z 10006KT 36/18 A2992 RMK A01 T03590177  RH  034%=      5-min Rain = 0
KTH1 032339Z 11007KT 36/18 A2992 RMK A01 T03590179  RH  035%=      5-min Rain = 0
KTH1 032340Z 09005KT 36/18 A2992 RMK A01 T03590180  RH  035%=      5-min Rain = 0
KTH1 032341Z 09008KT 36/18 A2992 RMK A01 T03590180  RH  035%=      5-min Rain = 0
KTH1 032342Z 09008KT 36/18 A2992 RMK A01 T03590178  RH  034%=      5-min Rain = 0
KTH1 032343Z 09009KT 36/18 A2992 RMK A01 T03580177  RH  034%=      5-min Rain = 0
KTH1 032344Z 10007KT 36/18 A2992 RMK A01 T03580181  RH  035%=      5-min Rain = 0
KTH1 032345Z 10008KT 36/18 A2992 RMK A01 T03580178  RH  035%=      5-min Rain = 0
KTH1 032346Z 10008KT 36/18 A2992 RMK A01 T03570176  RH  034%=      5-min Rain = 0
KTH1 032347Z 10009KT 36/18 A2992 RMK A01 T03570178  RH  035%=      5-min Rain = 0
KTH1 032348Z 10006KT 36/18 A2992 RMK A01 T03560179  RH  035%=      5-min Rain = 0
KTH1 032349Z 10007KT 36/18 A2992 RMK A01 T03560180  RH  035%=      5-min Rain = 0
KTH1 032350Z 10008KT 36/18 A2992 RMK A01 T03570177  RH  035%=      5-min Rain = 0
KTH1 032351Z 10008KT 36/18 A2992 RMK A01 T03570176  RH  034%=      5-min Rain = 0
KTH1 032352Z 10008KT 36/17 A2992 RMK A01 T03560174  RH  034%=      5-min Rain = 0
KTH1 032353Z 10009KT 36/18 A2992 RMK A01 T03560176  RH  035%=      5-min Rain = 0
KTH1 032354Z 10007KT 36/18 A2992 RMK A01 T03560175  RH  034%=      5-min Rain = 0
KTH1 032355Z 10007KT 36/18 A2992 RMK A01 T03550176  RH  035%=      5-min Rain = 0
KTH1 032356Z 10006KT 36/18 A2992 RMK A01 T03550180  RH  036%=      5-min Rain = 0
KTH1 032357Z 11005KT 36/18 A2992 RMK A01 T03560180  RH  035%=      5-min Rain = 0
KTH1 032358Z 10006KT 36/18 A2992 RMK A01 T03550178  RH  035%=      5-min Rain = 0
KTH1 032359Z 09007KT 36/18 A2992 RMK A01 T03550179  RH  035%=      5-min Rain = 0
KTH1 040000Z 09005KT 36/18 A2992 RMK A01 T03550182  RH  036%=      5-min Rain = 0
KTH1 040001Z 08005KT 36/19 A2992 RMK A01 T03550187  RH  037%=      5-min Rain = 0
KTH1 040002Z 08005KT 36/18 A2992 RMK A01 T03550184  RH  037%=      5-min Rain = 0
KTH1 040003Z 10006KT 36/19 A2993 RMK A01 T03550187  RH  037%=      5-min Rain = 0
KTH1 040004Z 10008KT 35/19 A2992 RMK A01 T03540185  RH  037%=      5-min Rain = 0
KTH1 040005Z 09008KT 35/18 A2993 RMK A01 T03530183  RH  037%=      5-min Rain = 0
KTH1 040006Z 08010KT 35/18 A2993 RMK A01 T03530183  RH  037%=      5-min Rain = 0
KTH1 040007Z 09008KT 35/18 A2993 RMK A01 T03520182  RH  037%=      5-min Rain = 0
KTH1 040008Z 10006KT 35/19 A2993 RMK A01 T03520185  RH  037%=      5-min Rain = 0
KTH1 040009Z 08006KT 35/19 A2993 RMK A01 T03520189  RH  038%=      5-min Rain = 0
KTH1 040010Z 09009KT 35/19 A2993 RMK A01 T03520187  RH  038%=      5-min Rain = 0
KTH1 040011Z 08009KT 35/19 A2993 RMK A01 T03510185  RH  038%=      5-min Rain = 0
KTH1 040012Z 09008KT 35/19 A2993 RMK A01 T03510185  RH  038%=      5-min Rain = 0
KTH1 040013Z 08007KT 35/19 A2993 RMK A01 T03500186  RH  038%=      5-min Rain = 0
KTH1 040014Z 09007KT 35/19 A2993 RMK A01 T03500188  RH  038%=      5-min Rain = 0
KTH1 040015Z 09008KT 35/19 A2993 RMK A01 T03500188  RH  039%=      5-min Rain = 0
KTH1 040016Z 09006KT 35/19 A2993 RMK A01 T03500191  RH  039%=      5-min Rain = 0
KTH1 040017Z 10006KT 35/19 A2993 RMK A01 T03490190  RH  039%=      5-min Rain = 0
KTH1 040018Z 10008KT 35/19 A2993 RMK A01 T03500191  RH  039%=      5-min Rain = 0
KTH1 040019Z 10006KT 35/19 A2993 RMK A01 T03490192  RH  040%=      5-min Rain = 0
KTH1 040020Z 10006KT 35/19 A2993 RMK A01 T03490192  RH  040%=      5-min Rain = 0
KTH1 040021Z 09006KT 35/19 A2993 RMK A01 T03490192  RH  040%=      5-min Rain = 0
KTH1 040022Z 10008KT 35/19 A2993 RMK A01 T03490191  RH  040%=      5-min Rain = 0
KTH1 040023Z 09010KT 35/19 A2993 RMK A01 T03480190  RH  039%=      5-min Rain = 0
KTH1 040024Z 09008KT 35/19 A2993 RMK A01 T03480189  RH  039%=      5-min Rain = 0
KTH1 040025Z 09005KT 35/19 A2993 RMK A01 T03470191  RH  040%=      5-min Rain = 0
KTH1 040026Z 09006KT 35/19 A2993 RMK A01 T03470192  RH  040%=      5-min Rain = 0
KTH1 040027Z 09008KT 35/19 A2993 RMK A01 T03470193  RH  040%=      5-min Rain = 0
KTH1 040028Z 10007KT 35/19 A2993 RMK A01 T03470192  RH  040%=      5-min Rain = 0
KTH1 040029Z 10005G10KT 35/19 A2993 RMK A01 T03460193  RH  041%=      5-min Rain = 0
KTH1 040030Z 08007KT 35/19 A2993 RMK A01 T03460193  RH  041%=      5-min Rain = 0
KTH1 040031Z 10006KT 35/19 A2993 RMK A01 T03460193  RH  041%=      5-min Rain = 0
KTH1 040032Z 09006KT 35/19 A2993 RMK A01 T03460193  RH  041%=      5-min Rain = 0
KTH1 040033Z 08007KT 35/19 A2993 RMK A01 T03450194  RH  041%=      5-min Rain = 0
KTH1 040034Z 08007KT 35/19 A2993 RMK A01 T03450193  RH  041%=      5-min Rain = 0
KTH1 040035Z 09007KT 35/19 A2993 RMK A01 T03450194  RH  041%=      5-min Rain = 0
KTH1 040036Z 09006KT 34/19 A2993 RMK A01 T03440193  RH  041%=      5-min Rain = 0
KTH1 040037Z 08007KT 34/19 A2993 RMK A01 T03440194  RH  041%=      5-min Rain = 0
KTH1 040038Z 09007KT 34/19 A2993 RMK A01 T03430194  RH  041%=      5-min Rain = 0
KTH1 040039Z 09007KT 34/19 A2993 RMK A01 T03430194  RH  042%=      5-min Rain = 0
KTH1 040040Z 09006KT 34/19 A2993 RMK A01 T03430194  RH  042%=      5-min Rain = 0
KTH1 040041Z 09006KT 34/20 A2993 RMK A01 T03430195  RH  042%=      5-min Rain = 0
KTH1 040042Z 09006KT 34/20 A2993 RMK A01 T03420195  RH  042%=      5-min Rain = 0
KTH1 040043Z 09007KT 34/19 A2993 RMK A01 T03410194  RH  042%=      5-min Rain = 0
KTH1 040044Z 09006KT 34/20 A2993 RMK A01 T03420195  RH  042%=      5-min Rain = 0
KTH1 040045Z 10006KT 34/20 A2993 RMK A01 T03410196  RH  043%=      5-min Rain = 0
KTH1 040046Z 10005KT 34/20 A2993 RMK A01 T03410195  RH  042%=      5-min Rain = 0
KTH1 040047Z 11004KT 34/20 A2993 RMK A01 T03410197  RH  043%=      5-min Rain = 0
KTH1 040048Z 11004KT 34/20 A2993 RMK A01 T03400200  RH  044%=      5-min Rain = 0
KTH1 040049Z 11005KT 34/20 A2993 RMK A01 T03400198  RH  043%=      5-min Rain = 0
KTH1 040050Z 11006KT 34/20 A2993 RMK A01 T03400199  RH  044%=      5-min Rain = 0
KTH1 040051Z 11008KT 34/20 A2993 RMK A01 T03390199  RH  044%=      5-min Rain = 0
KTH1 040052Z 11006KT 34/20 A2993 RMK A01 T03390197  RH  043%=      5-min Rain = 0
KTH1 040053Z 11007KT 34/20 A2993 RMK A01 T03380197  RH  043%=      5-min Rain = 0
KTH1 040054Z 12007KT 34/20 A2993 RMK A01 T03380197  RH  043%=      5-min Rain = 0
KTH1 040055Z 11007KT 34/20 A2993 RMK A01 T03380197  RH  043%=      5-min Rain = 0
KTH1 040056Z 11007KT 34/20 A2993 RMK A01 T03370195  RH  043%=      5-min Rain = 0
KTH1 040057Z 11006KT 34/20 A2993 RMK A01 T03370196  RH  043%=      5-min Rain = 0
KTH1 040058Z 11007KT 34/20 A2993 RMK A01 T03370195  RH  043%=      5-min Rain = 0
KTH1 040059Z 11006KT 34/20 A2993 RMK A01 T03360195  RH  043%=      5-min Rain = 0
KTH1 040100Z 11007KT 34/19 A2993 RMK A01 T03360193  RH  043%=      5-min Rain = 0
KTH1 040101Z 11008KT 34/19 A2993 RMK A01 T03350190  RH  042%=      5-min Rain = 0
KTH1 040102Z 11007KT 34/19 A2993 RMK A01 T03350191  RH  043%=      5-min Rain = 0
KTH1 040103Z 11007KT 34/19 A2993 RMK A01 T03350191  RH  043%=      5-min Rain = 0
KTH1 040104Z 11006KT 33/19 A2993 RMK A01 T03340191  RH  043%=      5-min Rain = 0
KTH1 040105Z 11008KT 33/19 A2993 RMK A01 T03340189  RH  042%=      5-min Rain = 0
KTH1 040106Z 11007KT 33/19 A2993 RMK A01 T03340188  RH  042%=      5-min Rain = 0
KTH1 040107Z 11006KT 33/19 A2993 RMK A01 T03340187  RH  042%=      5-min Rain = 0
KTH1 040108Z 11006KT 33/19 A2993 RMK A01 T03330188  RH  042%=      5-min Rain = 0
KTH1 040109Z 11007KT 33/19 A2993 RMK A01 T03330188  RH  042%=      5-min Rain = 0
KTH1 040110Z 11005KT 33/19 A2993 RMK A01 T03320188  RH  042%=      5-min Rain = 0
KTH1 040111Z 11005KT 33/19 A2993 RMK A01 T03310188  RH  043%=      5-min Rain = 0
KTH1 040112Z 11007KT 33/19 A2993 RMK A01 T03310187  RH  043%=      5-min Rain = 0
KTH1 040113Z 11006KT 33/19 A2993 RMK A01 T03300187  RH  043%=      5-min Rain = 0
KTH1 040114Z 10006KT 33/19 A2993 RMK A01 T03300186  RH  043%=      5-min Rain = 0
KTH1 040115Z 11005KT 33/19 A2993 RMK A01 T03290185  RH  042%=      5-min Rain = 0
KTH1 040116Z 11005KT 33/19 A2993 RMK A01 T03290185  RH  043%=      5-min Rain = 0
KTH1 040117Z 11006KT 33/18 A2993 RMK A01 T03280184  RH  042%=      5-min Rain = 0
KTH1 040118Z 11005KT 33/18 A2993 RMK A01 T03280183  RH  042%=      5-min Rain = 0
KTH1 040119Z 11008KT 33/18 A2993 RMK A01 T03280182  RH  042%=      5-min Rain = 0
KTH1 040120Z 11007KT 33/18 A2993 RMK A01 T03280182  RH  042%=      5-min Rain = 0
KTH1 040121Z 11005KT 33/18 A2993 RMK A01 T03280183  RH  042%=      5-min Rain = 0
KTH1 040122Z 11005KT 33/18 A2993 RMK A01 T03270183  RH  042%=      5-min Rain = 0
KTH1 040123Z 10005KT 33/18 A2993 RMK A01 T03260184  RH  043%=      5-min Rain = 0
KTH1 040124Z 11005KT 33/18 A2993 RMK A01 T03260184  RH  043%=      5-min Rain = 0
KTH1 040125Z 11005KT 33/18 A2993 RMK A01 T03250183  RH  043%=      5-min Rain = 0
KTH1 040126Z 11004KT 32/18 A2993 RMK A01 T03240184  RH  043%=      5-min Rain = 0
KTH1 040127Z 11006KT 32/18 A2993 RMK A01 T03230183  RH  043%=      5-min Rain = 0
KTH1 040128Z 11005KT 32/18 A2993 RMK A01 T03230183  RH  044%=      5-min Rain = 0
KTH1 040129Z 11004KT 32/18 A2993 RMK A01 T03230184  RH  044%=      5-min Rain = 0
KTH1 040130Z 11004KT 32/18 A2993 RMK A01 T03220184  RH  044%=      5-min Rain = 0
KTH1 040131Z 11005KT 32/18 A2993 RMK A01 T03210184  RH  044%=      5-min Rain = 0
KTH1 040132Z 12006KT 32/18 A2993 RMK A01 T03200184  RH  045%=      5-min Rain = 0
KTH1 040133Z 12005KT 32/18 A2993 RMK A01 T03190184  RH  045%=      5-min Rain = 0
KTH1 040134Z 12004KT 32/19 A2993 RMK A01 T03190185  RH  045%=      5-min Rain = 0
KTH1 040135Z 12005KT 32/18 A2993 RMK A01 T03180184  RH  045%=      5-min Rain = 0
KTH1 040136Z 12005KT 32/18 A2993 RMK A01 T03170184  RH  045%=      5-min Rain = 0
KTH1 040137Z 12005KT 32/18 A2993 RMK A01 T03170184  RH  045%=      5-min Rain = 0
KTH1 040138Z 12005KT 32/18 A2993 RMK A01 T03160184  RH  045%=      5-min Rain = 0
KTH1 040139Z 12005KT 32/18 A2993 RMK A01 T03160184  RH  046%=      5-min Rain = 0
KTH1 040140Z 12005KT 32/19 A2993 RMK A01 T03150185  RH  046%=      5-min Rain = 0
KTH1 040141Z 12005KT 31/18 A2993 RMK A01 T03140184  RH  046%=      5-min Rain = 0
KTH1 040142Z 12006KT 31/18 A2993 RMK A01 T03140184  RH  046%=      5-min Rain = 0
KTH1 040143Z 12005KT 31/18 A2993 RMK A01 T03140184  RH  046%=      5-min Rain = 0
KTH1 040144Z 12005KT 31/18 A2993 RMK A01 T03140183  RH  046%=      5-min Rain = 0
KTH1 040145Z 11005KT 31/18 A2993 RMK A01 T03130183  RH  046%=      5-min Rain = 0
KTH1 040146Z 12006KT 31/18 A2993 RMK A01 T03130183  RH  046%=      5-min Rain = 0
KTH1 040147Z 11005KT 31/18 A2993 RMK A01 T03130183  RH  046%=      5-min Rain = 0
KTH1 040148Z 12005KT 31/18 A2993 RMK A01 T03130183  RH  046%=      5-min Rain = 0
KTH1 040149Z 12006KT 31/18 A2993 RMK A01 T03130183  RH  046%=      5-min Rain = 0
KTH1 040150Z 12006KT 31/18 A2993 RMK A01 T03120183  RH  046%=      5-min Rain = 0
KTH1 040151Z 12006KT 31/18 A2993 RMK A01 T03120183  RH  046%=      5-min Rain = 0
KTH1 040152Z 11006KT 31/18 A2993 RMK A01 T03110184  RH  047%=      5-min Rain = 0
KTH1 040153Z 12006KT 31/18 A2993 RMK A01 T03110184  RH  047%=      5-min Rain = 0
KTH1 040154Z 12005KT 31/18 A2993 RMK A01 T03110183  RH  047%=      5-min Rain = 0
KTH1 040155Z 12006KT 31/18 A2993 RMK A01 T03110184  RH  047%=      5-min Rain = 0
KTH1 040156Z 12006KT 31/18 A2993 RMK A01 T03100184  RH  047%=      5-min Rain = 0
KTH1 040157Z 12006KT 31/18 A2994 RMK A01 T03100184  RH  047%=      5-min Rain = 0
KTH1 040158Z 12006KT 31/18 A2994 RMK A01 T03090184  RH  047%=      5-min Rain = 0
KTH1 040159Z 12006KT 31/18 A2994 RMK A01 T03080184  RH  048%=      5-min Rain = 0
KTH1 040200Z 13006KT 31/18 A2994 RMK A01 T03070184  RH  048%=      5-min Rain = 0
KTH1 040201Z 12006KT 31/19 A2994 RMK A01 T03070185  RH  048%=      5-min Rain = 0
KTH1 040202Z 13005KT 31/19 A2994 RMK A01 T03070185  RH  048%=      5-min Rain = 0
KTH1 040203Z 12006KT 31/19 A2994 RMK A01 T03060185  RH  048%=      5-min Rain = 0
KTH1 040204Z 12006KT 31/19 A2994 RMK A01 T03050185  RH  049%=      5-min Rain = 0
KTH1 040205Z 12006KT 31/19 A2994 RMK A01 T03050185  RH  049%=      5-min Rain = 0
KTH1 040206Z 12006KT 30/19 A2994 RMK A01 T03040185  RH  049%=      5-min Rain = 0
KTH1 040207Z 12006KT 30/19 A2994 RMK A01 T03040186  RH  049%=      5-min Rain = 0
KTH1 040208Z 12006KT 30/19 A2994 RMK A01 T03040186  RH  049%=      5-min Rain = 0
KTH1 040209Z 12006KT 30/19 A2994 RMK A01 T03040187  RH  050%=      5-min Rain = 0
KTH1 040210Z 12006KT 30/19 A2994 RMK A01 T03030186  RH  050%=      5-min Rain = 0
KTH1 040211Z 12006KT 30/19 A2994 RMK A01 T03030187  RH  050%=      5-min Rain = 0
KTH1 040212Z 12007KT 30/19 A2994 RMK A01 T03030187  RH  050%=      5-min Rain = 0
KTH1 040213Z 12006KT 30/19 A2994 RMK A01 T03030187  RH  050%=      5-min Rain = 0
KTH1 040214Z 12006KT 30/19 A2994 RMK A01 T03040188  RH  050%=      5-min Rain = 0
KTH1 040215Z 12006KT 30/19 A2994 RMK A01 T03040188  RH  050%=      5-min Rain = 0
KTH1 040216Z 12005KT 30/19 A2994 RMK A01 T03040188  RH  050%=      5-min Rain = 0
KTH1 040217Z 11005KT 30/19 A2994 RMK A01 T03040189  RH  050%=      5-min Rain = 0
KTH1 040218Z 11006KT 30/19 A2994 RMK A01 T03030189  RH  050%=      5-min Rain = 0
KTH1 040219Z 12006KT 30/19 A2994 RMK A01 T03030189  RH  051%=      5-min Rain = 0
KTH1 040220Z 12006KT 30/19 A2994 RMK A01 T03030189  RH  051%=      5-min Rain = 0
KTH1 040221Z 12006KT 30/19 A2995 RMK A01 T03030189  RH  051%=      5-min Rain = 0
KTH1 040222Z 12006KT 30/19 A2995 RMK A01 T03030190  RH  051%=      5-min Rain = 0
KTH1 040223Z 12005KT 30/19 A2995 RMK A01 T03020190  RH  051%=      5-min Rain = 0
KTH1 040224Z 11005KT 30/19 A2995 RMK A01 T03020190  RH  051%=      5-min Rain = 0
KTH1 040225Z 12005KT 30/19 A2995 RMK A01 T03010190  RH  051%=      5-min Rain = 0
KTH1 040226Z 12006KT 30/19 A2995 RMK A01 T03010190  RH  052%=      5-min Rain = 0
KTH1 040227Z 12006KT 30/19 A2995 RMK A01 T03000190  RH  052%=      5-min Rain = 0
KTH1 040228Z 12006KT 30/19 A2995 RMK A01 T03000191  RH  052%=      5-min Rain = 0
KTH1 040229Z 12006KT 30/19 A2995 RMK A01 T02990191  RH  052%=      5-min Rain = 0
KTH1 040230Z 12007KT 30/19 A2995 RMK A01 T02990191  RH  052%=      5-min Rain = 0
KTH1 040231Z 13006KT 30/19 A2995 RMK A01 T02980191  RH  053%=      5-min Rain = 0
KTH1 040232Z 12006KT 30/19 A2995 RMK A01 T02980191  RH  053%=      5-min Rain = 0
KTH1 040233Z 13006KT 30/19 A2995 RMK A01 T02980191  RH  053%=      5-min Rain = 0
KTH1 040234Z 12007KT 30/19 A2995 RMK A01 T02980192  RH  053%=      5-min Rain = 0
KTH1 040235Z 12006KT 30/19 A2995 RMK A01 T02970191  RH  053%=      5-min Rain = 0
KTH1 040236Z 12006KT 30/19 A2995 RMK A01 T02970192  RH  053%=      5-min Rain = 0
KTH1 040237Z 13007KT 30/19 A2995 RMK A01 T02960192  RH  054%=      5-min Rain = 0
KTH1 040238Z 13005KT 30/19 A2995 RMK A01 T02960192  RH  054%=      5-min Rain = 0
KTH1 040239Z 12005KT 30/19 A2995 RMK A01 T02960192  RH  054%=      5-min Rain = 0
KTH1 040240Z 12006KT 30/19 A2995 RMK A01 T02960192  RH  054%=      5-min Rain = 0
KTH1 040241Z 12006KT 30/19 A2995 RMK A01 T02960192  RH  054%=      5-min Rain = 0
KTH1 040242Z 12006KT 30/19 A2996 RMK A01 T02960193  RH  054%=      5-min Rain = 0
KTH1 040243Z 11006KT 30/19 A2996 RMK A01 T02960193  RH  054%=      5-min Rain = 0
KTH1 040244Z 12005KT 30/19 A2996 RMK A01 T02960193  RH  054%=      5-min Rain = 0
KTH1 040245Z 12005KT 30/19 A2996 RMK A01 T02950193  RH  054%=      5-min Rain = 0
KTH1 040246Z 11005KT 30/19 A2996 RMK A01 T02960194  RH  054%=      5-min Rain = 0
KTH1 040247Z 12005KT 30/19 A2996 RMK A01 T02950194  RH  054%=      5-min Rain = 0
KTH1 040248Z 11005KT 30/19 A2996 RMK A01 T02950194  RH  054%=      5-min Rain = 0
KTH1 040249Z 12005KT 30/19 A2996 RMK A01 T02950194  RH  054%=      5-min Rain = 0
KTH1 040250Z 11004KT 30/19 A2996 RMK A01 T02950194  RH  055%=      5-min Rain = 0
KTH1 040251Z 12004KT 30/19 A2996 RMK A01 T02950194  RH  055%=      5-min Rain = 0
KTH1 040252Z 12005KT 30/20 A2996 RMK A01 T02950195  RH  055%=      5-min Rain = 0
KTH1 040253Z 12005KT 29/19 A2996 RMK A01 T02940194  RH  055%=      5-min Rain = 0
KTH1 040254Z 12004KT 29/20 A2996 RMK A01 T02940195  RH  055%=      5-min Rain = 0
KTH1 040255Z 12005KT 29/19 A2996 RMK A01 T02930194  RH  055%=      5-min Rain = 0
KTH1 040256Z 12005KT 29/20 A2996 RMK A01 T02930195  RH  055%=      5-min Rain = 0
KTH1 040257Z 12004KT 29/19 A2996 RMK A01 T02930194  RH  055%=      5-min Rain = 0
KTH1 040258Z 12005KT 29/19 A2996 RMK A01 T02920194  RH  056%=      5-min Rain = 0
KTH1 040259Z 12006KT 29/20 A2996 RMK A01 T02920195  RH  056%=      5-min Rain = 0
KTH1 040300Z 12004KT 29/19 A2996 RMK A01 T02910194  RH  056%=      5-min Rain = 0
KTH1 040301Z 12004KT 29/20 A2996 RMK A01 T02910195  RH  056%=      5-min Rain = 0
KTH1 040302Z 12004KT 29/20 A2996 RMK A01 T02910195  RH  056%=      5-min Rain = 0
KTH1 040303Z 12004KT 29/20 A2996 RMK A01 T02910195  RH  056%=      5-min Rain = 0
KTH1 040304Z 12004KT 29/20 A2996 RMK A01 T02900195  RH  056%=      5-min Rain = 0
KTH1 040305Z 12004KT 29/20 A2996 RMK A01 T02900195  RH  057%=      5-min Rain = 0
KTH1 040306Z 12004KT 29/20 A2996 RMK A01 T02890195  RH  057%=      5-min Rain = 0
KTH1 040307Z 12004KT 29/20 A2996 RMK A01 T02890195  RH  057%=      5-min Rain = 0
KTH1 040308Z 12004KT 29/20 A2996 RMK A01 T02880195  RH  057%=      5-min Rain = 0
KTH1 040309Z 12005KT 29/20 A2996 RMK A01 T02880196  RH  057%=      5-min Rain = 0
KTH1 040310Z 12004KT 29/20 A2996 RMK A01 T02880196  RH  057%=      5-min Rain = 0
KTH1 040311Z 12004KT 29/20 A2996 RMK A01 T02870195  RH  058%=      5-min Rain = 0
KTH1 040312Z 12004KT 29/20 A2996 RMK A01 T02870196  RH  058%=      5-min Rain = 0
KTH1 040313Z 12004KT 29/20 A2997 RMK A01 T02870196  RH  058%=      5-min Rain = 0
KTH1 040314Z 12004KT 29/20 A2997 RMK A01 T02870196  RH  058%=      5-min Rain = 0
KTH1 040315Z 11004KT 29/20 A2997 RMK A01 T02870196  RH  058%=      5-min Rain = 0
KTH1 040316Z 12004KT 29/20 A2997 RMK A01 T02870196  RH  058%=      5-min Rain = 0
KTH1 040317Z 12004KT 29/20 A2997 RMK A01 T02870196  RH  058%=      5-min Rain = 0
KTH1 040318Z 12004KT 29/20 A2997 RMK A01 T02860196  RH  058%=      5-min Rain = 0
KTH1 040319Z 12004KT 29/20 A2997 RMK A01 T02860196  RH  058%=      5-min Rain = 0
KTH1 040320Z 12004KT 29/20 A2997 RMK A01 T02860196  RH  058%=      5-min Rain = 0
KTH1 040321Z 12005KT 29/20 A2997 RMK A01 T02860196  RH  058%=      5-min Rain = 0
KTH1 040322Z 12004KT 29/20 A2997 RMK A01 T02850195  RH  058%=      5-min Rain = 0
KTH1 040323Z 11005KT 29/20 A2997 RMK A01 T02860195  RH  058%=      5-min Rain = 0
KTH1 040324Z 11005KT 29/20 A2997 RMK A01 T02860196  RH  058%=      5-min Rain = 0
KTH1 040325Z 12004KT 29/20 A2997 RMK A01 T02850195  RH  058%=      5-min Rain = 0
KTH1 040326Z 12004KT 29/20 A2997 RMK A01 T02850196  RH  058%=      5-min Rain = 0
KTH1 040327Z 12004KT 29/20 A2997 RMK A01 T02850195  RH  058%=      5-min Rain = 0
KTH1 040328Z 12004KT 29/20 A2997 RMK A01 T02850196  RH  058%=      5-min Rain = 0
KTH1 040329Z 12004KT 28/20 A2997 RMK A01 T02840196  RH  059%=      5-min Rain = 0
KTH1 040330Z 13004KT 28/20 A2997 RMK A01 T02840196  RH  059%=      5-min Rain = 0
KTH1 040331Z 12004KT 28/20 A2997 RMK A01 T02840196  RH  059%=      5-min Rain = 0
KTH1 040332Z 13004KT 28/20 A2997 RMK A01 T02830195  RH  059%=      5-min Rain = 0
KTH1 040333Z 13004KT 28/20 A2997 RMK A01 T02820196  RH  059%=      5-min Rain = 0
KTH1 040334Z 13004KT 28/20 A2997 RMK A01 T02810195  RH  059%=      5-min Rain = 0
KTH1 040335Z 14004KT 28/20 A2997 RMK A01 T02810195  RH  060%=      5-min Rain = 0
KTH1 040336Z 14004KT 28/20 A2997 RMK A01 T02800195  RH  060%=      5-min Rain = 0
KTH1 040337Z 13004KT 28/20 A2997 RMK A01 T02800195  RH  060%=      5-min Rain = 0
KTH1 040338Z 13004KT 28/20 A2997 RMK A01 T02800195  RH  060%=      5-min Rain = 0
KTH1 040339Z 13004KT 28/19 A2997 RMK A01 T02790194  RH  060%=      5-min Rain = 0
KTH1 040340Z 13004KT 28/19 A2997 RMK A01 T02790194  RH  060%=      5-min Rain = 0
KTH1 040341Z 13004KT 28/19 A2997 RMK A01 T02790193  RH  059%=      5-min Rain = 0
KTH1 040342Z 12004KT 28/19 A2997 RMK A01 T02800193  RH  059%=      5-min Rain = 0
KTH1 040343Z 12004KT 28/19 A2997 RMK A01 T02800193  RH  059%=      5-min Rain = 0
KTH1 040344Z 12004KT 28/19 A2997 RMK A01 T02800193  RH  059%=      5-min Rain = 0
KTH1 040345Z 11004KT 28/19 A2997 RMK A01 T02810194  RH  059%=      5-min Rain = 0
KTH1 040346Z 12004KT 28/19 A2997 RMK A01 T02810193  RH  059%=      5-min Rain = 0
KTH1 040347Z 12004KT 28/19 A2997 RMK A01 T02810193  RH  059%=      5-min Rain = 0
KTH1 040348Z 12004KT 28/19 A2998 RMK A01 T02810193  RH  059%=      5-min Rain = 0
KTH1 040349Z 12004KT 28/19 A2998 RMK A01 T02810193  RH  059%=      5-min Rain = 0
KTH1 040350Z 12004KT 28/19 A2998 RMK A01 T02810194  RH  059%=      5-min Rain = 0
KTH1 040351Z 12004KT 28/19 A2998 RMK A01 T02810194  RH  059%=      5-min Rain = 0
KTH1 040352Z 12004KT 28/19 A2998 RMK A01 T02820194  RH  059%=      5-min Rain = 0
KTH1 040353Z 12004KT 28/19 A2998 RMK A01 T02810193  RH  059%=      5-min Rain = 0
KTH1 040354Z 12004KT 28/19 A2998 RMK A01 T02810193  RH  059%=      5-min Rain = 0
KTH1 040355Z 12004KT 28/19 A2998 RMK A01 T02810193  RH  059%=      5-min Rain = 0
KTH1 040356Z 12004KT 28/19 A2998 RMK A01 T02810193  RH  059%=      5-min Rain = 0
KTH1 040357Z 13004KT 28/19 A2998 RMK A01 T02810194  RH  059%=      5-min Rain = 0
KTH1 040358Z 13004KT 28/19 A2998 RMK A01 T02810193  RH  059%=      5-min Rain = 0
KTH1 040359Z 12004KT 28/19 A2998 RMK A01 T02810193  RH  059%=      5-min Rain = 0
KTH1 040400Z 13004KT 28/19 A2998 RMK A01 T02800193  RH  059%=      5-min Rain = 0
KTH1 040401Z 12004KT 28/19 A2998 RMK A01 T02800194  RH  059%=      5-min Rain = 0
KTH1 040402Z 12004KT 28/19 A2998 RMK A01 T02800193  RH  059%=      5-min Rain = 0
KTH1 040403Z 11004KT 28/19 A2998 RMK A01 T02800193  RH  059%=      5-min Rain = 0
KTH1 040404Z 11004KT 28/19 A2998 RMK A01 T02790193  RH  059%=      5-min Rain = 0
KTH1 040405Z 12004KT 28/19 A2998 RMK A01 T02800193  RH  059%=      5-min Rain = 0
KTH1 040406Z 12004KT 28/19 A2998 RMK A01 T02790193  RH  059%=      5-min Rain = 0
KTH1 040407Z 11003KT 28/19 A2998 RMK A01 T02790193  RH  059%=      5-min Rain = 0
KTH1 040408Z 12004KT 28/19 A2998 RMK A01 T02790192  RH  059%=      5-min Rain = 0
KTH1 040409Z 12003KT 28/19 A2998 RMK A01 T02780193  RH  060%=      5-min Rain = 0
KTH1 040410Z 12003KT 28/19 A2998 RMK A01 T02780192  RH  059%=      5-min Rain = 0
KTH1 040411Z 13004KT 28/19 A2998 RMK A01 T02770192  RH  060%=      5-min Rain = 0
KTH1 040412Z 13004KT 28/19 A2998 RMK A01 T02770193  RH  060%=      5-min Rain = 0
KTH1 040413Z 13004KT 28/19 A2998 RMK A01 T02760193  RH  060%=      5-min Rain = 0
KTH1 040414Z 14004KT 28/19 A2998 RMK A01 T02750192  RH  061%=      5-min Rain = 0
KTH1 040415Z 14003KT 28/19 A2998 RMK A01 T02750193  RH  061%=      5-min Rain = 0
KTH1 040416Z 14004KT 27/19 A2998 RMK A01 T02740193  RH  061%=      5-min Rain = 0
KTH1 040417Z 14004KT 27/19 A2998 RMK A01 T02730193  RH  062%=      5-min Rain = 0
KTH1 040418Z 15004KT 27/19 A2998 RMK A01 T02720193  RH  062%=      5-min Rain = 0
KTH1 040419Z 15004KT 27/19 A2998 RMK A01 T02710192  RH  062%=      5-min Rain = 0
KTH1 040420Z 15004KT 27/19 A2998 RMK A01 T02710192  RH  062%=      5-min Rain = 0
KTH1 040421Z 15004KT 27/19 A2998 RMK A01 T02710192  RH  062%=      5-min Rain = 0
KTH1 040422Z 16004KT 27/19 A2998 RMK A01 T02700192  RH  062%=      5-min Rain = 0
KTH1 040423Z 16004KT 27/19 A2998 RMK A01 T02700192  RH  062%=      5-min Rain = 0
KTH1 040424Z 16004KT 27/19 A2998 RMK A01 T02690191  RH  062%=      5-min Rain = 0
KTH1 040425Z 16004KT 27/19 A2998 RMK A01 T02690191  RH  063%=      5-min Rain = 0
KTH1 040426Z 16004KT 27/19 A2998 RMK A01 T02680191  RH  063%=      5-min Rain = 0
KTH1 040427Z 16004KT 27/19 A2998 RMK A01 T02680191  RH  062%=      5-min Rain = 0
KTH1 040428Z 16005KT 27/19 A2997 RMK A01 T02680190  RH  062%=      5-min Rain = 0
KTH1 040429Z 16005KT 27/19 A2997 RMK A01 T02680190  RH  062%=      5-min Rain = 0
KTH1 040430Z 16005KT 27/19 A2997 RMK A01 T02690190  RH  062%=      5-min Rain = 0
KTH1 040431Z 16004KT 27/19 A2997 RMK A01 T02690190  RH  062%=      5-min Rain = 0
KTH1 040432Z 16004KT 27/19 A2997 RMK A01 T02690190  RH  062%=      5-min Rain = 0
KTH1 040433Z 16003KT 27/19 A2997 RMK A01 T02690190  RH  062%=      5-min Rain = 0
KTH1 040434Z 16003KT 27/19 A2997 RMK A01 T02680190  RH  062%=      5-min Rain = 0
KTH1 040435Z 15004KT 27/19 A2997 RMK A01 T02680191  RH  063%=      5-min Rain = 0
KTH1 040436Z 15004KT 27/19 A2997 RMK A01 T02680191  RH  063%=      5-min Rain = 0
KTH1 040437Z 15004KT 27/19 A2997 RMK A01 T02680192  RH  063%=      5-min Rain = 0
KTH1 040438Z 15004KT 27/19 A2997 RMK A01 T02670192  RH  064%=      5-min Rain = 0
KTH1 040439Z 15004KT 27/19 A2997 RMK A01 T02660192  RH  064%=      5-min Rain = 0
KTH1 040440Z 15003KT 27/19 A2997 RMK A01 T02660191  RH  064%=      5-min Rain = 0
KTH1 040441Z 14003KT 27/19 A2997 RMK A01 T02650191  RH  064%=      5-min Rain = 0
KTH1 040442Z 14003KT 27/19 A2997 RMK A01 T02650191  RH  064%=      5-min Rain = 0
KTH1 040443Z 13003KT 26/19 A2997 RMK A01 T02640191  RH  064%=      5-min Rain = 0
KTH1 040444Z 13003KT 26/19 A2997 RMK A01 T02640191  RH  064%=      5-min Rain = 0
KTH1 040445Z 13003KT 26/19 A2997 RMK A01 T02640192  RH  064%=      5-min Rain = 0
KTH1 040446Z 12003KT 26/19 A2997 RMK A01 T02630192  RH  065%=      5-min Rain = 0
KTH1 040447Z 13003KT 26/19 A2997 RMK A01 T02630192  RH  065%=      5-min Rain = 0
KTH1 040448Z 13003KT 26/19 A2997 RMK A01 T02630192  RH  065%=      5-min Rain = 0
KTH1 040449Z 13004KT 26/19 A2997 RMK A01 T02620192  RH  065%=      5-min Rain = 0
KTH1 040450Z 13003KT 26/19 A2997 RMK A01 T02610192  RH  065%=      5-min Rain = 0
KTH1 040451Z 13003KT 26/19 A2997 RMK A01 T02610192  RH  066%=      5-min Rain = 0
KTH1 040452Z 13004KT 26/19 A2997 RMK A01 T02600192  RH  066%=      5-min Rain = 0
KTH1 040453Z 13004KT 26/19 A2997 RMK A01 T02600192  RH  066%=      5-min Rain = 0
KTH1 040454Z 13004KT 26/19 A2997 RMK A01 T02590192  RH  066%=      5-min Rain = 0
KTH1 040455Z 13004KT 26/19 A2997 RMK A01 T02590191  RH  066%=      5-min Rain = 0
KTH1 040456Z 14004KT 26/19 A2997 RMK A01 T02590191  RH  066%=      5-min Rain = 0
KTH1 040457Z 14003KT 26/19 A2997 RMK A01 T02590192  RH  066%=      5-min Rain = 0
KTH1 040458Z 14004KT 26/19 A2997 RMK A01 T02590191  RH  066%=      5-min Rain = 0
KTH1 040459Z 14003KT 26/19 A2997 RMK A01 T02590191  RH  066%=      5-min Rain = 0

Page generated in 0.0717 seconds.